Observation data for Tahoka on 07/06/2020      Previous  Date  Next       Current Mesonet Observations  Soil Data  Daily Summary Page  Observations in Plain Language
KTAS 060500Z 25006KT 21/19 A3001 RMK A01 T02070185  RH  087%=      5-min Rain = 0
KTAS 060501Z 25006KT 21/19 A3001 RMK A01 T02070185  RH  087%=      5-min Rain = 0
KTAS 060502Z 25006KT 21/19 A3001 RMK A01 T02070185  RH  088%=      5-min Rain = 0
KTAS 060503Z 25006KT 21/19 A3001 RMK A01 T02070185  RH  088%=      5-min Rain = 0
KTAS 060504Z 26005KT 21/19 A3001 RMK A01 T02070186  RH  088%=      5-min Rain = 0
KTAS 060505Z 26006KT 21/19 A3001 RMK A01 T02060186  RH  088%=      5-min Rain = 0
KTAS 060506Z 26006KT 21/19 A3001 RMK A01 T02060186  RH  088%=      5-min Rain = 0.01
KTAS 060507Z 26006KT 21/19 A3001 RMK A01 T02060186  RH  088%=      5-min Rain = 0
KTAS 060508Z 26006KT 21/19 A3001 RMK A01 T02060187  RH  089%=      5-min Rain = 0
KTAS 060509Z 25007KT 21/19 A3001 RMK A01 T02050187  RH  089%=      5-min Rain = 0
KTAS 060510Z 26006KT 21/19 A3001 RMK A01 T02050187  RH  089%=      5-min Rain = 0
KTAS 060511Z 27007KT 21/19 A3001 RMK A01 T02050187  RH  089%=      5-min Rain = 0
KTAS 060512Z 28007KT 21/19 A3002 RMK A01 T02050188  RH  089%=      5-min Rain = 0
KTAS 060513Z 27006KT 21/19 A3002 RMK A01 T02050188  RH  090%=      5-min Rain = 0
KTAS 060514Z 27005KT 21/19 A3002 RMK A01 T02050188  RH  090%=      5-min Rain = 0
KTAS 060515Z 30007KT 21/19 A3002 RMK A01 T02050189  RH  090%=      5-min Rain = 0.01
KTAS 060516Z 30007KT 21/19 A3002 RMK A01 T02050189  RH  091%=      5-min Rain = 0
KTAS 060517Z 29005KT 21/19 A3002 RMK A01 T02050190  RH  091%=      5-min Rain = 0
KTAS 060518Z 29006KT 21/19 A3002 RMK A01 T02050190  RH  091%=      5-min Rain = 0
KTAS 060519Z 30006KT 21/19 A3002 RMK A01 T02050191  RH  091%=      5-min Rain = 0
KTAS 060520Z 30006KT 21/19 A3002 RMK A01 T02050191  RH  091%=      5-min Rain = 0
KTAS 060521Z 31006KT 21/19 A3002 RMK A01 T02060191  RH  091%=      5-min Rain = 0
KTAS 060522Z 30007KT 21/19 A3002 RMK A01 T02060191  RH  091%=      5-min Rain = 0
KTAS 060523Z 30006KT 21/19 A3002 RMK A01 T02060191  RH  091%=      5-min Rain = 0
KTAS 060524Z 31007KT 21/19 A3002 RMK A01 T02060191  RH  091%=      5-min Rain = 0
KTAS 060525Z 31007KT 21/19 A3002 RMK A01 T02060191  RH  091%=      5-min Rain = 0
KTAS 060526Z 32009KT 21/19 A3002 RMK A01 T02050190  RH  091%=      5-min Rain = 0
KTAS 060527Z 31009KT 21/19 A3002 RMK A01 T02050189  RH  091%=      5-min Rain = 0
KTAS 060528Z 31007KT 21/19 A3002 RMK A01 T02050189  RH  091%=      5-min Rain = 0
KTAS 060529Z 31006KT 21/19 A3002 RMK A01 T02050189  RH  091%=      5-min Rain = 0
KTAS 060530Z 32005KT 21/19 A3002 RMK A01 T02050189  RH  090%=      5-min Rain = 0
KTAS 060531Z 33004KT 21/19 A3002 RMK A01 T02050189  RH  090%=      5-min Rain = 0
KTAS 060532Z 33005KT 21/19 A3001 RMK A01 T02050189  RH  090%=      5-min Rain = 0
KTAS 060533Z 32004KT 20/19 A3001 RMK A01 T02040188  RH  091%=      5-min Rain = 0
KTAS 060534Z 32004KT 20/19 A3001 RMK A01 T02040188  RH  091%=      5-min Rain = 0
KTAS 060535Z 32004KT 20/19 A3001 RMK A01 T02040188  RH  091%=      5-min Rain = 0
KTAS 060536Z 32004KT 20/19 A3001 RMK A01 T02030188  RH  091%=      5-min Rain = 0
KTAS 060537Z 33003KT 20/19 A3001 RMK A01 T02030188  RH  091%=      5-min Rain = 0
KTAS 060538Z 34003KT 20/19 A3001 RMK A01 T02030189  RH  091%=      5-min Rain = 0
KTAS 060539Z 35003KT 20/19 A3001 RMK A01 T02030189  RH  091%=      5-min Rain = 0
KTAS 060540Z 01003KT 20/19 A3001 RMK A01 T02040190  RH  092%=      5-min Rain = 0
KTAS 060541Z 02004KT 20/19 A3001 RMK A01 T02040190  RH  092%=      5-min Rain = 0
KTAS 060542Z 03004KT 20/19 A3001 RMK A01 T02040190  RH  092%=      5-min Rain = 0
KTAS 060543Z 04005KT 20/19 A3001 RMK A01 T02040190  RH  092%=      5-min Rain = 0
KTAS 060544Z 05005KT 20/19 A3001 RMK A01 T02030190  RH  092%=      5-min Rain = 0
KTAS 060545Z 05005KT 20/19 A3001 RMK A01 T02030190  RH  092%=      5-min Rain = 0
KTAS 060546Z 05005KT 20/19 A3001 RMK A01 T02030191  RH  092%=      5-min Rain = 0
KTAS 060547Z 05006KT 20/19 A3001 RMK A01 T02040192  RH  093%=      5-min Rain = 0
KTAS 060548Z 05006KT 20/19 A3001 RMK A01 T02040191  RH  092%=      5-min Rain = 0
KTAS 060549Z 06006KT 20/19 A3001 RMK A01 T02040191  RH  092%=      5-min Rain = 0
KTAS 060550Z 06006KT 21/19 A3001 RMK A01 T02050192  RH  092%=      5-min Rain = 0
KTAS 060551Z 05005KT 21/19 A3001 RMK A01 T02050192  RH  092%=      5-min Rain = 0
KTAS 060552Z 05005KT 21/19 A3001 RMK A01 T02050192  RH  092%=      5-min Rain = 0
KTAS 060553Z 05006KT 21/19 A3001 RMK A01 T02050192  RH  092%=      5-min Rain = 0
KTAS 060554Z 05005KT 21/19 A3001 RMK A01 T02060192  RH  092%=      5-min Rain = 0
KTAS 060555Z 06005KT 21/19 A3001 RMK A01 T02060192  RH  092%=      5-min Rain = 0
KTAS 060556Z 05006KT 21/19 A3001 RMK A01 T02060192  RH  091%=      5-min Rain = 0
KTAS 060557Z 05006KT 21/19 A3001 RMK A01 T02060191  RH  091%=      5-min Rain = 0
KTAS 060558Z 06006KT 21/19 A3001 RMK A01 T02060191  RH  091%=      5-min Rain = 0
KTAS 060559Z 06007KT 21/19 A3001 RMK A01 T02060191  RH  091%=      5-min Rain = 0
KTAS 060600Z 06007KT 21/19 A3001 RMK A01 T02050191  RH  091%=      5-min Rain = 0
KTAS 060601Z 06007KT 21/19 A3001 RMK A01 T02050191  RH  091%=      5-min Rain = 0
KTAS 060602Z 07007KT 21/19 A3001 RMK A01 T02050190  RH  091%=      5-min Rain = 0
KTAS 060603Z 07006KT 21/19 A3001 RMK A01 T02050190  RH  091%=      5-min Rain = 0
KTAS 060604Z 07006KT 21/19 A3001 RMK A01 T02050190  RH  091%=      5-min Rain = 0
KTAS 060605Z 06007KT 21/19 A3001 RMK A01 T02050190  RH  091%=      5-min Rain = 0
KTAS 060606Z 05007KT 21/19 A3001 RMK A01 T02050190  RH  091%=      5-min Rain = 0
KTAS 060607Z 06007KT 21/19 A3001 RMK A01 T02050190  RH  091%=      5-min Rain = 0
KTAS 060608Z 06009KT 21/19 A3001 RMK A01 T02050189  RH  091%=      5-min Rain = 0
KTAS 060609Z 06009KT 21/19 A3001 RMK A01 T02060189  RH  090%=      5-min Rain = 0
KTAS 060610Z 06009KT 21/19 A3001 RMK A01 T02070189  RH  090%=      5-min Rain = 0
KTAS 060611Z 06009KT 21/19 A3001 RMK A01 T02070188  RH  089%=      5-min Rain = 0
KTAS 060612Z 06008KT 21/19 A3001 RMK A01 T02070188  RH  089%=      5-min Rain = 0
KTAS 060613Z 06007KT 21/19 A3001 RMK A01 T02080187  RH  088%=      5-min Rain = 0
KTAS 060614Z 06006KT 21/19 A3001 RMK A01 T02080187  RH  088%=      5-min Rain = 0
KTAS 060615Z 05005KT 21/19 A3001 RMK A01 T02080187  RH  088%=      5-min Rain = 0
KTAS 060616Z 05004KT 21/19 A3001 RMK A01 T02080187  RH  088%=      5-min Rain = 0
KTAS 060617Z 04005KT 21/19 A3001 RMK A01 T02080187  RH  088%=      5-min Rain = 0
KTAS 060618Z 05004KT 21/19 A3001 RMK A01 T02080187  RH  088%=      5-min Rain = 0
KTAS 060619Z 05005KT 21/19 A3001 RMK A01 T02080188  RH  088%=      5-min Rain = 0
KTAS 060620Z 05004KT 21/19 A3001 RMK A01 T02080187  RH  088%=      5-min Rain = 0
KTAS 060621Z 05004KT 21/19 A3001 RMK A01 T02070187  RH  088%=      5-min Rain = 0
KTAS 060622Z 05003KT 21/19 A3001 RMK A01 T02070187  RH  088%=      5-min Rain = 0
KTAS 060623Z 05003KT 21/19 A3001 RMK A01 T02070187  RH  088%=      5-min Rain = 0
KTAS 060624Z 05003KT 21/19 A3001 RMK A01 T02070188  RH  089%=      5-min Rain = 0
KTAS 060625Z 05003KT 21/19 A3001 RMK A01 T02070188  RH  089%=      5-min Rain = 0
KTAS 060626Z 04003KT 21/19 A30 RMK A01 T02070188  RH  089%=      5-min Rain = 0
KTAS 060627Z 03003KT 21/19 A30 RMK A01 T02070188  RH  089%=      5-min Rain = 0
KTAS 060628Z 03002KT 21/19 A30 RMK A01 T02070187  RH  088%=      5-min Rain = 0
KTAS 060629Z 03002KT 21/19 A30 RMK A01 T02080188  RH  088%=      5-min Rain = 0
KTAS 060630Z 03002KT 21/19 A30 RMK A01 T02080187  RH  088%=      5-min Rain = 0
KTAS 060631Z 04002KT 21/19 A30 RMK A01 T02080188  RH  088%=      5-min Rain = 0
KTAS 060632Z 06002KT 21/19 A2999 RMK A01 T02090188  RH  088%=      5-min Rain = 0
KTAS 060633Z 06002KT 21/19 A2999 RMK A01 T02090187  RH  087%=      5-min Rain = 0
KTAS 060634Z 06003KT 21/19 A2999 RMK A01 T02090187  RH  087%=      5-min Rain = 0
KTAS 060635Z 06003KT 21/19 A2999 RMK A01 T02090187  RH  087%=      5-min Rain = 0
KTAS 060636Z 05003KT 21/19 A2999 RMK A01 T02100187  RH  087%=      5-min Rain = 0
KTAS 060637Z 04002KT 21/19 A2999 RMK A01 T02100187  RH  086%=      5-min Rain = 0
KTAS 060638Z 04003KT 21/19 A2999 RMK A01 T02110187  RH  087%=      5-min Rain = 0
KTAS 060639Z 04003KT 21/19 A2999 RMK A01 T02110188  RH  087%=      5-min Rain = 0
KTAS 060640Z 03002KT 21/19 A2999 RMK A01 T02110189  RH  087%=      5-min Rain = 0
KTAS 060641Z 03002KT 21/19 A2999 RMK A01 T02110189  RH  087%=      5-min Rain = 0
KTAS 060642Z 03002KT 21/19 A2999 RMK A01 T02110190  RH  088%=      5-min Rain = 0
KTAS 060643Z 02003KT 21/19 A2999 RMK A01 T02110191  RH  088%=      5-min Rain = 0
KTAS 060644Z 02003KT 21/19 A2999 RMK A01 T02110191  RH  088%=      5-min Rain = 0
KTAS 060645Z 02003KT 21/19 A2999 RMK A01 T02100190  RH  088%=      5-min Rain = 0
KTAS 060646Z 02004KT 21/19 A2999 RMK A01 T02100190  RH  089%=      5-min Rain = 0
KTAS 060647Z 03004KT 21/19 A2999 RMK A01 T02100191  RH  089%=      5-min Rain = 0
KTAS 060648Z 02004KT 21/19 A2999 RMK A01 T02100191  RH  089%=      5-min Rain = 0
KTAS 060649Z 02004KT 21/19 A2999 RMK A01 T02090191  RH  089%=      5-min Rain = 0
KTAS 060650Z 02004KT 21/19 A2999 RMK A01 T02090191  RH  089%=      5-min Rain = 0
KTAS 060651Z 02004KT 21/19 A2999 RMK A01 T02090191  RH  089%=      5-min Rain = 0
KTAS 060652Z 03004KT 21/19 A2999 RMK A01 T02090191  RH  089%=      5-min Rain = 0
KTAS 060653Z 03004KT 21/19 A2999 RMK A01 T02090191  RH  090%=      5-min Rain = 0
KTAS 060654Z 03004KT 21/19 A2999 RMK A01 T02090191  RH  089%=      5-min Rain = 0
KTAS 060655Z 02003KT 21/19 A2999 RMK A01 T02090192  RH  090%=      5-min Rain = 0
KTAS 060656Z 02004KT 21/19 A2999 RMK A01 T02090191  RH  089%=      5-min Rain = 0
KTAS 060657Z 02003KT 21/19 A2999 RMK A01 T02100192  RH  090%=      5-min Rain = 0
KTAS 060658Z 02003KT 21/19 A2999 RMK A01 T02100192  RH  090%=      5-min Rain = 0
KTAS 060659Z 02004KT 21/19 A2999 RMK A01 T02100192  RH  090%=      5-min Rain = 0
KTAS 060700Z 02003KT 21/19 A2999 RMK A01 T02100192  RH  090%=      5-min Rain = 0
KTAS 060701Z 03004KT 21/19 A2999 RMK A01 T02100192  RH  090%=      5-min Rain = 0
KTAS 060702Z 04005KT 21/19 A2999 RMK A01 T02100192  RH  090%=      5-min Rain = 0
KTAS 060703Z 04004KT 21/19 A2999 RMK A01 T02100192  RH  090%=      5-min Rain = 0
KTAS 060704Z 04004KT 21/19 A2999 RMK A01 T02100193  RH  090%=      5-min Rain = 0
KTAS 060705Z 05004KT 21/19 A2999 RMK A01 T02110193  RH  090%=      5-min Rain = 0
KTAS 060706Z 05004KT 21/19 A2999 RMK A01 T02110193  RH  089%=      5-min Rain = 0
KTAS 060707Z 05005KT 21/19 A2999 RMK A01 T02110192  RH  089%=      5-min Rain = 0
KTAS 060708Z 06005KT 21/19 A2999 RMK A01 T02110192  RH  089%=      5-min Rain = 0
KTAS 060709Z 06005KT 21/19 A2998 RMK A01 T02110192  RH  089%=      5-min Rain = 0
KTAS 060710Z 06005KT 21/19 A2998 RMK A01 T02110191  RH  089%=      5-min Rain = 0
KTAS 060711Z 06004KT 21/19 A2998 RMK A01 T02110191  RH  088%=      5-min Rain = 0
KTAS 060712Z 07004KT 21/19 A2998 RMK A01 T02120191  RH  088%=      5-min Rain = 0
KTAS 060713Z 07005KT 21/19 A2998 RMK A01 T02120191  RH  088%=      5-min Rain = 0
KTAS 060714Z 07005KT 21/19 A2998 RMK A01 T02120191  RH  088%=      5-min Rain = 0
KTAS 060715Z 07006KT 21/19 A2998 RMK A01 T02110191  RH  088%=      5-min Rain = 0
KTAS 060716Z 06006KT 21/19 A2998 RMK A01 T02110191  RH  088%=      5-min Rain = 0
KTAS 060717Z 06006KT 21/19 A2998 RMK A01 T02110190  RH  088%=      5-min Rain = 0
KTAS 060718Z 06007KT 21/19 A2998 RMK A01 T02110190  RH  088%=      5-min Rain = 0
KTAS 060719Z 07007KT 21/19 A2998 RMK A01 T02110190  RH  088%=      5-min Rain = 0
KTAS 060720Z 08007KT 21/19 A2998 RMK A01 T02120190  RH  087%=      5-min Rain = 0
KTAS 060721Z 08008KT 21/19 A2998 RMK A01 T02120190  RH  087%=      5-min Rain = 0
KTAS 060722Z 08009KT 21/19 A2998 RMK A01 T02120190  RH  087%=      5-min Rain = 0
KTAS 060723Z 08010KT 21/19 A2998 RMK A01 T02110190  RH  087%=      5-min Rain = 0
KTAS 060724Z 08009KT 21/19 A2998 RMK A01 T02110190  RH  088%=      5-min Rain = 0
KTAS 060725Z 08009KT 21/19 A2998 RMK A01 T02110191  RH  088%=      5-min Rain = 0
KTAS 060726Z 08009KT 21/19 A2998 RMK A01 T02090191  RH  089%=      5-min Rain = 0.01
KTAS 060727Z 08009KT 21/19 A2998 RMK A01 T02080191  RH  090%=      5-min Rain = 0
KTAS 060728Z 09008KT 21/19 A2998 RMK A01 T02070191  RH  090%=      5-min Rain = 0
KTAS 060729Z 09006KT 21/19 A2998 RMK A01 T02070192  RH  091%=      5-min Rain = 0.02
KTAS 060730Z 08008KT 21/19 A2998 RMK A01 T02060192  RH  091%=      5-min Rain = 0
KTAS 060731Z 09008KT 21/19 A2998 RMK A01 T02060191  RH  091%=      5-min Rain = 0
KTAS 060732Z 09007KT 21/19 A2998 RMK A01 T02050191  RH  092%=      5-min Rain = 0
KTAS 060733Z 10007KT 21/19 A2998 RMK A01 T02050192  RH  092%=      5-min Rain = 0
KTAS 060734Z 11007KT 21/19 A2998 RMK A01 T02050192  RH  092%=      5-min Rain = 0.01
KTAS 060735Z 12007KT 21/19 A2998 RMK A01 T02050192  RH  092%=      5-min Rain = 0
KTAS 060736Z 11008KT 21/19 A2998 RMK A01 T02050192  RH  092%=      5-min Rain = 0
KTAS 060737Z 11008KT 21/19 A2997 RMK A01 T02060192  RH  092%=      5-min Rain = 0
KTAS 060738Z 12006KT 21/19 A2997 RMK A01 T02060192  RH  092%=      5-min Rain = 0
KTAS 060739Z 14006KT 21/19 A2997 RMK A01 T02070192  RH  091%=      5-min Rain = 0
KTAS 060740Z 13007KT 21/19 A2997 RMK A01 T02070192  RH  091%=      5-min Rain = 0
KTAS 060741Z 12007KT 21/19 A2997 RMK A01 T02070193  RH  092%=      5-min Rain = 0
KTAS 060742Z 12006KT 21/19 A2997 RMK A01 T02070193  RH  092%=      5-min Rain = 0
KTAS 060743Z 12005KT 21/19 A2997 RMK A01 T02070193  RH  092%=      5-min Rain = 0
KTAS 060744Z 12005KT 21/19 A2997 RMK A01 T02070194  RH  092%=      5-min Rain = 0
KTAS 060745Z 11006KT 21/19 A2997 RMK A01 T02070193  RH  092%=      5-min Rain = 0
KTAS 060746Z 10005KT 21/19 A2998 RMK A01 T02070193  RH  092%=      5-min Rain = 0
KTAS 060747Z 08004KT 21/19 A2998 RMK A01 T02070193  RH  092%=      5-min Rain = 0
KTAS 060748Z 04004KT 21/19 A2998 RMK A01 T02070193  RH  092%=      5-min Rain = 0
KTAS 060749Z 02006KT 21/19 A2999 RMK A01 T02070193  RH  092%=      5-min Rain = 0
KTAS 060750Z 01007KT 21/19 A2999 RMK A01 T02080194  RH  092%=      5-min Rain = 0
KTAS 060751Z 01010KT 21/19 A2999 RMK A01 T02080194  RH  092%=      5-min Rain = 0
KTAS 060752Z 01010KT 21/19 A2999 RMK A01 T02070193  RH  092%=      5-min Rain = 0
KTAS 060753Z 01010KT 21/19 A30 RMK A01 T02070193  RH  091%=      5-min Rain = 0.01
KTAS 060754Z 00010KT 21/19 A30 RMK A01 T02070193  RH  091%=      5-min Rain = 0
KTAS 060755Z 00009KT 21/19 A30 RMK A01 T02070192  RH  091%=      5-min Rain = 0
KTAS 060756Z 00010KT 21/19 A30 RMK A01 T02060192  RH  091%=      5-min Rain = 0
KTAS 060757Z 01010KT 21/19 A30 RMK A01 T02050190  RH  091%=      5-min Rain = 0
KTAS 060758Z 01008KT 21/19 A30 RMK A01 T02050189  RH  091%=      5-min Rain = 0
KTAS 060759Z 02008KT 20/19 A2999 RMK A01 T02040189  RH  091%=      5-min Rain = 0
KTAS 060800Z 03008KT 20/19 A2999 RMK A01 T02040189  RH  091%=      5-min Rain = 0
KTAS 060801Z 03008KT 20/19 A2999 RMK A01 T02040188  RH  091%=      5-min Rain = 0
KTAS 060802Z 04008KT 20/19 A2999 RMK A01 T02040188  RH  091%=      5-min Rain = 0
KTAS 060803Z 05008KT 20/19 A2999 RMK A01 T02030187  RH  091%=      5-min Rain = 0
KTAS 060804Z 05008KT 20/19 A2999 RMK A01 T02030187  RH  091%=      5-min Rain = 0.01
KTAS 060805Z 06007KT 20/19 A2998 RMK A01 T02020187  RH  091%=      5-min Rain = 0
KTAS 060806Z 07008KT 20/19 A2998 RMK A01 T02010187  RH  091%=      5-min Rain = 0
KTAS 060807Z 07008KT 20/19 A2998 RMK A01 T02020187  RH  092%=      5-min Rain = 0
KTAS 060808Z 08008KT 20/19 A2998 RMK A01 T02020188  RH  092%=      5-min Rain = 0
KTAS 060809Z 09009KT 20/19 A2998 RMK A01 T02010188  RH  092%=      5-min Rain = 0
KTAS 060810Z 09009KT 20/19 A2997 RMK A01 T02010188  RH  092%=      5-min Rain = 0
KTAS 060811Z 09008KT 20/19 A2997 RMK A01 T02010188  RH  092%=      5-min Rain = 0
KTAS 060812Z 09008KT 20/19 A2997 RMK A01 T02010188  RH  092%=      5-min Rain = 0
KTAS 060813Z 09008KT 20/19 A2997 RMK A01 T02000188  RH  093%=      5-min Rain = 0
KTAS 060814Z 09007KT 20/19 A2997 RMK A01 T02000188  RH  093%=      5-min Rain = 0
KTAS 060815Z 09007KT 20/19 A2997 RMK A01 T02000188  RH  093%=      5-min Rain = 0
KTAS 060816Z 08006KT 20/19 A2997 RMK A01 T02000188  RH  093%=      5-min Rain = 0
KTAS 060817Z 08007KT 20/19 A2997 RMK A01 T02000189  RH  093%=      5-min Rain = 0
KTAS 060818Z 08007KT 20/19 A2997 RMK A01 T02000189  RH  093%=      5-min Rain = 0
KTAS 060819Z 08006KT 20/19 A2998 RMK A01 T02010189  RH  093%=      5-min Rain = 0
KTAS 060820Z 07006KT 20/19 A2998 RMK A01 T02010189  RH  093%=      5-min Rain = 0
KTAS 060821Z 07007KT 20/19 A2998 RMK A01 T02010189  RH  093%=      5-min Rain = 0.01
KTAS 060822Z 07006KT 20/19 A2998 RMK A01 T02010189  RH  093%=      5-min Rain = 0
KTAS 060823Z 06005KT 20/19 A2998 RMK A01 T02010189  RH  093%=      5-min Rain = 0
KTAS 060824Z 06005KT 20/19 A2998 RMK A01 T02010189  RH  093%=      5-min Rain = 0
KTAS 060825Z 05005KT 20/19 A2998 RMK A01 T02010189  RH  093%=      5-min Rain = 0
KTAS 060826Z 05005KT 20/19 A2998 RMK A01 T02010189  RH  093%=      5-min Rain = 0
KTAS 060827Z 04004KT 20/19 A2998 RMK A01 T02010189  RH  093%=      5-min Rain = 0
KTAS 060828Z 04005KT 20/19 A2998 RMK A01 T02010189  RH  093%=      5-min Rain = 0
KTAS 060829Z 04004KT 20/19 A2998 RMK A01 T02010189  RH  092%=      5-min Rain = 0
KTAS 060830Z 06004KT 20/19 A2998 RMK A01 T02020189  RH  092%=      5-min Rain = 0
KTAS 060831Z 06003KT 20/19 A2998 RMK A01 T02020189  RH  092%=      5-min Rain = 0
KTAS 060832Z 06004KT 20/19 A2999 RMK A01 T02020189  RH  092%=      5-min Rain = 0
KTAS 060833Z 07003KT 20/19 A2999 RMK A01 T02020189  RH  092%=      5-min Rain = 0
KTAS 060834Z 07004KT 20/19 A2999 RMK A01 T02020189  RH  092%=      5-min Rain = 0
KTAS 060835Z 06002KT 20/19 A2999 RMK A01 T02020189  RH  092%=      5-min Rain = 0
KTAS 060836Z 06002KT 20/19 A2999 RMK A01 T02020189  RH  092%=      5-min Rain = 0
KTAS 060837Z 05002KT 20/19 A2999 RMK A01 T02020189  RH  092%=      5-min Rain = 0
KTAS 060838Z 06000KT 20/19 A2999 RMK A01 T02020189  RH  092%=      5-min Rain = 0
KTAS 060839Z 00000KT 20/19 A2999 RMK A01 T02020189  RH  092%=      5-min Rain = 0
KTAS 060840Z 13000KT 20/19 A2999 RMK A01 T02020189  RH  092%=      5-min Rain = 0
KTAS 060841Z 21000KT 20/19 A30 RMK A01 T02030190  RH  093%=      5-min Rain = 0
KTAS 060842Z 21001KT 20/19 A30 RMK A01 T02030191  RH  093%=      5-min Rain = 0
KTAS 060843Z 24002KT 20/19 A30 RMK A01 T02030191  RH  093%=      5-min Rain = 0
KTAS 060844Z 25003KT 20/19 A30 RMK A01 T02030190  RH  093%=      5-min Rain = 0
KTAS 060845Z 25005KT 20/19 A30 RMK A01 T02030191  RH  093%=      5-min Rain = 0
KTAS 060846Z 24005KT 20/19 A30 RMK A01 T02030191  RH  093%=      5-min Rain = 0
KTAS 060847Z 23006KT 20/19 A30 RMK A01 T02030191  RH  093%=      5-min Rain = 0
KTAS 060848Z 24005KT 20/19 A30 RMK A01 T02030191  RH  093%=      5-min Rain = 0
KTAS 060849Z 24004KT 20/19 A30 RMK A01 T02030191  RH  093%=      5-min Rain = 0
KTAS 060850Z 25003KT 20/19 A30 RMK A01 T02030191  RH  093%=      5-min Rain = 0
KTAS 060851Z 26004KT 20/19 A30 RMK A01 T02030191  RH  093%=      5-min Rain = 0
KTAS 060852Z 26004KT 20/19 A30 RMK A01 T02030191  RH  093%=      5-min Rain = 0
KTAS 060853Z 26005KT 20/19 A30 RMK A01 T02030192  RH  093%=      5-min Rain = 0
KTAS 060854Z 26005KT 20/19 A30 RMK A01 T02030192  RH  093%=      5-min Rain = 0
KTAS 060855Z 27005KT 20/19 A30 RMK A01 T02030192  RH  093%=      5-min Rain = 0
KTAS 060856Z 27005KT 20/19 A30 RMK A01 T02040193  RH  093%=      5-min Rain = 0
KTAS 060857Z 27006KT 20/19 A30 RMK A01 T02040193  RH  093%=      5-min Rain = 0
KTAS 060858Z 27006KT 20/19 A30 RMK A01 T02040193  RH  093%=      5-min Rain = 0
KTAS 060859Z 27006KT 20/19 A30 RMK A01 T02040193  RH  093%=      5-min Rain = 0
KTAS 060900Z 27006KT 20/19 A30 RMK A01 T02040193  RH  093%=      5-min Rain = 0
KTAS 060901Z 28007KT 20/19 A2999 RMK A01 T02040193  RH  093%=      5-min Rain = 0
KTAS 060902Z 27007KT 20/19 A2999 RMK A01 T02040192  RH  093%=      5-min Rain = 0
KTAS 060903Z 28007KT 20/19 A2999 RMK A01 T02040193  RH  093%=      5-min Rain = 0
KTAS 060904Z 28007KT 21/19 A2999 RMK A01 T02050193  RH  093%=      5-min Rain = 0
KTAS 060905Z 28007KT 21/19 A2999 RMK A01 T02050194  RH  093%=      5-min Rain = 0
KTAS 060906Z 27009KT 21/19 A2999 RMK A01 T02050194  RH  093%=      5-min Rain = 0
KTAS 060907Z 28009KT 21/19 A2999 RMK A01 T02050194  RH  093%=      5-min Rain = 0
KTAS 060908Z 28008KT 21/19 A2999 RMK A01 T02050194  RH  093%=      5-min Rain = 0
KTAS 060909Z 29009KT 21/19 A2999 RMK A01 T02050194  RH  093%=      5-min Rain = 0
KTAS 060910Z 29007KT 21/19 A2999 RMK A01 T02050193  RH  093%=      5-min Rain = 0
KTAS 060911Z 29007KT 21/19 A2999 RMK A01 T02050193  RH  093%=      5-min Rain = 0
KTAS 060912Z 30009KT 21/19 A2999 RMK A01 T02050193  RH  093%=      5-min Rain = 0
KTAS 060913Z 29008KT 21/19 A2999 RMK A01 T02050192  RH  093%=      5-min Rain = 0
KTAS 060914Z 29008KT 21/19 A2999 RMK A01 T02050193  RH  093%=      5-min Rain = 0
KTAS 060915Z 29008KT 21/19 A2999 RMK A01 T02050193  RH  093%=      5-min Rain = 0
KTAS 060916Z 29006KT 21/19 A2999 RMK A01 T02050193  RH  093%=      5-min Rain = 0
KTAS 060917Z 29008KT 21/19 A2999 RMK A01 T02050193  RH  093%=      5-min Rain = 0
KTAS 060918Z 29006KT 21/19 A2999 RMK A01 T02050193  RH  093%=      5-min Rain = 0
KTAS 060919Z 29006KT 21/19 A2999 RMK A01 T02050193  RH  093%=      5-min Rain = 0
KTAS 060920Z 30006KT 21/19 A2998 RMK A01 T02050193  RH  093%=      5-min Rain = 0
KTAS 060921Z 30007KT 21/19 A2998 RMK A01 T02050193  RH  093%=      5-min Rain = 0
KTAS 060922Z 29008KT 21/19 A2998 RMK A01 T02050193  RH  093%=      5-min Rain = 0
KTAS 060923Z 29006KT 21/19 A2998 RMK A01 T02050193  RH  093%=      5-min Rain = 0
KTAS 060924Z 29007KT 21/19 A2998 RMK A01 T02050193  RH  093%=      5-min Rain = 0
KTAS 060925Z 29007KT 21/19 A2998 RMK A01 T02050193  RH  093%=      5-min Rain = 0
KTAS 060926Z 29008KT 21/19 A2998 RMK A01 T02050193  RH  093%=      5-min Rain = 0
KTAS 060927Z 29008KT 21/19 A2998 RMK A01 T02060194  RH  093%=      5-min Rain = 0
KTAS 060928Z 29008KT 21/19 A2998 RMK A01 T02060194  RH  093%=      5-min Rain = 0
KTAS 060929Z 29006KT 21/19 A2998 RMK A01 T02060193  RH  092%=      5-min Rain = 0
KTAS 060930Z 29007KT 21/19 A2998 RMK A01 T02060193  RH  092%=      5-min Rain = 0
KTAS 060931Z 30006KT 21/19 A2998 RMK A01 T02060193  RH  092%=      5-min Rain = 0
KTAS 060932Z 30006KT 21/19 A2998 RMK A01 T02060193  RH  092%=      5-min Rain = 0
KTAS 060933Z 30005KT 21/19 A2998 RMK A01 T02060193  RH  092%=      5-min Rain = 0
KTAS 060934Z 30005KT 21/19 A2998 RMK A01 T02060193  RH  092%=      5-min Rain = 0
KTAS 060935Z 30005KT 21/19 A2998 RMK A01 T02060193  RH  092%=      5-min Rain = 0
KTAS 060936Z 30005KT 21/19 A2998 RMK A01 T02070193  RH  092%=      5-min Rain = 0
KTAS 060937Z 30006KT 21/19 A2998 RMK A01 T02070193  RH  092%=      5-min Rain = 0
KTAS 060938Z 31006KT 21/19 A2998 RMK A01 T02070193  RH  092%=      5-min Rain = 0
KTAS 060939Z 31006KT 21/19 A2998 RMK A01 T02070193  RH  092%=      5-min Rain = 0
KTAS 060940Z 31005KT 21/19 A2998 RMK A01 T02070193  RH  092%=      5-min Rain = 0
KTAS 060941Z 31005KT 21/19 A2998 RMK A01 T02070193  RH  092%=      5-min Rain = 0
KTAS 060942Z 31006KT 21/19 A2998 RMK A01 T02070193  RH  091%=      5-min Rain = 0
KTAS 060943Z 32006KT 21/19 A2998 RMK A01 T02070193  RH  091%=      5-min Rain = 0
KTAS 060944Z 32006KT 21/19 A2998 RMK A01 T02070193  RH  092%=      5-min Rain = 0
KTAS 060945Z 32007KT 21/19 A2998 RMK A01 T02070193  RH  092%=      5-min Rain = 0
KTAS 060946Z 32006KT 21/19 A2998 RMK A01 T02070193  RH  092%=      5-min Rain = 0
KTAS 060947Z 32007KT 21/19 A2998 RMK A01 T02070193  RH  092%=      5-min Rain = 0
KTAS 060948Z 33007KT 21/19 A2998 RMK A01 T02070194  RH  092%=      5-min Rain = 0
KTAS 060949Z 33007KT 21/19 A2999 RMK A01 T02070194  RH  092%=      5-min Rain = 0
KTAS 060950Z 33007KT 21/19 A2999 RMK A01 T02070194  RH  092%=      5-min Rain = 0
KTAS 060951Z 33007KT 21/19 A2999 RMK A01 T02070194  RH  092%=      5-min Rain = 0
KTAS 060952Z 34007KT 21/19 A2999 RMK A01 T02070194  RH  092%=      5-min Rain = 0
KTAS 060953Z 34007KT 21/19 A2999 RMK A01 T02070194  RH  092%=      5-min Rain = 0
KTAS 060954Z 33007KT 21/19 A2999 RMK A01 T02070194  RH  092%=      5-min Rain = 0
KTAS 060955Z 34008KT 21/20 A2999 RMK A01 T02070195  RH  092%=      5-min Rain = 0
KTAS 060956Z 35007KT 21/20 A30 RMK A01 T02070195  RH  092%=      5-min Rain = 0
KTAS 060957Z 35007KT 21/20 A30 RMK A01 T02080195  RH  093%=      5-min Rain = 0
KTAS 060958Z 35008KT 21/20 A30 RMK A01 T02080196  RH  093%=      5-min Rain = 0
KTAS 060959Z 36008KT 21/20 A30 RMK A01 T02080196  RH  093%=      5-min Rain = 0
KTAS 061000Z 35008KT 21/20 A30 RMK A01 T02080196  RH  093%=      5-min Rain = 0
KTAS 061001Z 35009KT 21/20 A30 RMK A01 T02080196  RH  093%=      5-min Rain = 0
KTAS 061002Z 36008KT 21/20 A30 RMK A01 T02080197  RH  093%=      5-min Rain = 0
KTAS 061003Z 36008KT 21/20 A30 RMK A01 T02080197  RH  093%=      5-min Rain = 0
KTAS 061004Z 00009KT 21/20 A30 RMK A01 T02080196  RH  093%=      5-min Rain = 0
KTAS 061005Z 00009KT 21/20 A30 RMK A01 T02070196  RH  093%=      5-min Rain = 0
KTAS 061006Z 01009KT 21/20 A30 RMK A01 T02070195  RH  093%=      5-min Rain = 0
KTAS 061007Z 00009KT 21/20 A30 RMK A01 T02070195  RH  093%=      5-min Rain = 0
KTAS 061008Z 36008KT 21/20 A2999 RMK A01 T02060195  RH  093%=      5-min Rain = 0
KTAS 061009Z 36009KT 21/20 A2999 RMK A01 T02060195  RH  093%=      5-min Rain = 0
KTAS 061010Z 35009KT 21/20 A2999 RMK A01 T02060195  RH  093%=      5-min Rain = 0
KTAS 061011Z 35009KT 21/20 A30 RMK A01 T02060195  RH  093%=      5-min Rain = 0
KTAS 061012Z 35008KT 21/20 A30 RMK A01 T02060195  RH  093%=      5-min Rain = 0
KTAS 061013Z 35008KT 21/19 A30 RMK A01 T02060194  RH  093%=      5-min Rain = 0
KTAS 061014Z 35009KT 21/19 A30 RMK A01 T02050194  RH  093%=      5-min Rain = 0
KTAS 061015Z 35008KT 21/19 A30 RMK A01 T02050194  RH  093%=      5-min Rain = 0
KTAS 061016Z 36008KT 21/19 A30 RMK A01 T02050194  RH  093%=      5-min Rain = 0
KTAS 061017Z 35007KT 21/20 A30 RMK A01 T02050195  RH  094%=      5-min Rain = 0
KTAS 061018Z 35008KT 21/20 A30 RMK A01 T02050195  RH  094%=      5-min Rain = 0
KTAS 061019Z 36008KT 21/20 A30 RMK A01 T02050195  RH  093%=      5-min Rain = 0
KTAS 061020Z 35008KT 21/20 A30 RMK A01 T02050195  RH  094%=      5-min Rain = 0
KTAS 061021Z 36007KT 21/20 A30 RMK A01 T02050195  RH  093%=      5-min Rain = 0
KTAS 061022Z 36006KT 21/19 A30 RMK A01 T02050194  RH  093%=      5-min Rain = 0
KTAS 061023Z 35007KT 21/19 A30 RMK A01 T02050194  RH  093%=      5-min Rain = 0
KTAS 061024Z 00007KT 21/19 A30 RMK A01 T02050194  RH  093%=      5-min Rain = 0
KTAS 061025Z 36008KT 21/19 A30 RMK A01 T02050194  RH  093%=      5-min Rain = 0
KTAS 061026Z 36009KT 21/19 A30 RMK A01 T02050194  RH  093%=      5-min Rain = 0
KTAS 061027Z 36009KT 21/19 A30 RMK A01 T02050194  RH  093%=      5-min Rain = 0
KTAS 061028Z 36008KT 21/19 A30 RMK A01 T02050194  RH  093%=      5-min Rain = 0
KTAS 061029Z 36008KT 21/19 A30 RMK A01 T02050194  RH  093%=      5-min Rain = 0
KTAS 061030Z 36008KT 21/19 A30 RMK A01 T02050194  RH  093%=      5-min Rain = 0
KTAS 061031Z 00009KT 21/19 A30 RMK A01 T02050194  RH  093%=      5-min Rain = 0
KTAS 061032Z 00008KT 21/19 A30 RMK A01 T02050194  RH  094%=      5-min Rain = 0
KTAS 061033Z 00008KT 21/19 A30 RMK A01 T02050194  RH  093%=      5-min Rain = 0
KTAS 061034Z 00008KT 21/19 A30 RMK A01 T02050194  RH  094%=      5-min Rain = 0
KTAS 061035Z 36008KT 21/19 A30 RMK A01 T02050194  RH  094%=      5-min Rain = 0
KTAS 061036Z 36008KT 21/19 A30 RMK A01 T02050194  RH  094%=      5-min Rain = 0
KTAS 061037Z 36007KT 21/19 A30 RMK A01 T02050194  RH  094%=      5-min Rain = 0
KTAS 061038Z 36007KT 21/19 A30 RMK A01 T02050194  RH  094%=      5-min Rain = 0
KTAS 061039Z 36007KT 21/20 A30 RMK A01 T02050195  RH  094%=      5-min Rain = 0
KTAS 061040Z 36008KT 21/19 A30 RMK A01 T02050194  RH  094%=      5-min Rain = 0
KTAS 061041Z 00007KT 21/19 A30 RMK A01 T02050194  RH  094%=      5-min Rain = 0
KTAS 061042Z 36008KT 21/19 A30 RMK A01 T02050194  RH  094%=      5-min Rain = 0
KTAS 061043Z 00008KT 21/19 A30 RMK A01 T02050194  RH  094%=      5-min Rain = 0
KTAS 061044Z 00008KT 21/20 A3001 RMK A01 T02050195  RH  094%=      5-min Rain = 0
KTAS 061045Z 00008KT 21/19 A3001 RMK A01 T02050194  RH  094%=      5-min Rain = 0
KTAS 061046Z 00009KT 21/19 A3001 RMK A01 T02050194  RH  094%=      5-min Rain = 0
KTAS 061047Z 36008KT 21/20 A3001 RMK A01 T02050195  RH  094%=      5-min Rain = 0
KTAS 061048Z 36008KT 21/19 A3001 RMK A01 T02050194  RH  094%=      5-min Rain = 0
KTAS 061049Z 36006KT 21/19 A3001 RMK A01 T02050194  RH  094%=      5-min Rain = 0
KTAS 061050Z 36008KT 21/19 A3001 RMK A01 T02050194  RH  094%=      5-min Rain = 0
KTAS 061051Z 35007KT 21/19 A3001 RMK A01 T02050194  RH  094%=      5-min Rain = 0
KTAS 061052Z 00007KT 21/19 A3001 RMK A01 T02050194  RH  094%=      5-min Rain = 0
KTAS 061053Z 00008KT 20/19 A3001 RMK A01 T02040194  RH  094%=      5-min Rain = 0
KTAS 061054Z 36008KT 20/19 A3001 RMK A01 T02040194  RH  094%=      5-min Rain = 0
KTAS 061055Z 36007KT 20/19 A3001 RMK A01 T02040194  RH  094%=      5-min Rain = 0
KTAS 061056Z 35007KT 20/19 A3001 RMK A01 T02040194  RH  094%=      5-min Rain = 0
KTAS 061057Z 35006KT 20/19 A3001 RMK A01 T02040193  RH  094%=      5-min Rain = 0
KTAS 061058Z 34006KT 20/19 A3001 RMK A01 T02030193  RH  094%=      5-min Rain = 0
KTAS 061059Z 34007KT 20/19 A3001 RMK A01 T02030193  RH  094%=      5-min Rain = 0
KTAS 061100Z 34006KT 20/19 A3001 RMK A01 T02030193  RH  094%=      5-min Rain = 0
KTAS 061101Z 34007KT 20/19 A3001 RMK A01 T02030192  RH  094%=      5-min Rain = 0
KTAS 061102Z 35008KT 20/19 A3001 RMK A01 T02030192  RH  094%=      5-min Rain = 0
KTAS 061103Z 34007KT 20/19 A3001 RMK A01 T02030192  RH  094%=      5-min Rain = 0
KTAS 061104Z 35007KT 20/19 A3001 RMK A01 T02030192  RH  094%=      5-min Rain = 0
KTAS 061105Z 35007KT 20/19 A30 RMK A01 T02030192  RH  094%=      5-min Rain = 0
KTAS 061106Z 35007KT 20/19 A30 RMK A01 T02030192  RH  094%=      5-min Rain = 0
KTAS 061107Z 34006KT 20/19 A30 RMK A01 T02030192  RH  094%=      5-min Rain = 0
KTAS 061108Z 34006KT 20/19 A30 RMK A01 T02020191  RH  094%=      5-min Rain = 0
KTAS 061109Z 34006KT 20/19 A30 RMK A01 T02020191  RH  094%=      5-min Rain = 0
KTAS 061110Z 33006KT 20/19 A30 RMK A01 T02020191  RH  094%=      5-min Rain = 0
KTAS 061111Z 34007KT 20/19 A30 RMK A01 T02010191  RH  094%=      5-min Rain = 0
KTAS 061112Z 33006KT 20/19 A30 RMK A01 T02010191  RH  094%=      5-min Rain = 0
KTAS 061113Z 34007KT 20/19 A30 RMK A01 T02010191  RH  094%=      5-min Rain = 0
KTAS 061114Z 33006KT 20/19 A30 RMK A01 T02010191  RH  094%=      5-min Rain = 0
KTAS 061115Z 33005KT 20/19 A30 RMK A01 T02010191  RH  094%=      5-min Rain = 0
KTAS 061116Z 34006KT 20/19 A30 RMK A01 T02010191  RH  094%=      5-min Rain = 0
KTAS 061117Z 34006KT 20/19 A30 RMK A01 T02010191  RH  094%=      5-min Rain = 0
KTAS 061118Z 34007KT 20/19 A30 RMK A01 T02010191  RH  094%=      5-min Rain = 0
KTAS 061119Z 34008KT 20/19 A30 RMK A01 T02010191  RH  094%=      5-min Rain = 0
KTAS 061120Z 35007KT 20/19 A30 RMK A01 T02010191  RH  094%=      5-min Rain = 0
KTAS 061121Z 34008KT 20/19 A30 RMK A01 T02010191  RH  094%=      5-min Rain = 0
KTAS 061122Z 34007KT 20/19 A30 RMK A01 T02010191  RH  094%=      5-min Rain = 0
KTAS 061123Z 34007KT 20/19 A30 RMK A01 T02010191  RH  094%=      5-min Rain = 0
KTAS 061124Z 35006KT 20/19 A30 RMK A01 T02010191  RH  094%=      5-min Rain = 0
KTAS 061125Z 35007KT 20/19 A30 RMK A01 T02010191  RH  094%=      5-min Rain = 0
KTAS 061126Z 35008KT 20/19 A30 RMK A01 T02010191  RH  094%=      5-min Rain = 0
KTAS 061127Z 35006KT 20/19 A30 RMK A01 T02010191  RH  094%=      5-min Rain = 0
KTAS 061128Z 36006KT 20/19 A30 RMK A01 T02010191  RH  094%=      5-min Rain = 0
KTAS 061129Z 35007KT 20/19 A30 RMK A01 T02010191  RH  094%=      5-min Rain = 0
KTAS 061130Z 35007KT 20/19 A30 RMK A01 T02010191  RH  093%=      5-min Rain = 0
KTAS 061131Z 35008KT 20/19 A30 RMK A01 T02010191  RH  094%=      5-min Rain = 0
KTAS 061132Z 35007KT 20/19 A30 RMK A01 T02020191  RH  093%=      5-min Rain = 0
KTAS 061133Z 34006KT 20/19 A30 RMK A01 T02020191  RH  093%=      5-min Rain = 0
KTAS 061134Z 34006KT 20/19 A30 RMK A01 T02020191  RH  093%=      5-min Rain = 0
KTAS 061135Z 34006KT 20/19 A30 RMK A01 T02020191  RH  093%=      5-min Rain = 0
KTAS 061136Z 35006KT 20/19 A30 RMK A01 T02010190  RH  093%=      5-min Rain = 0
KTAS 061137Z 35006KT 20/19 A30 RMK A01 T02010191  RH  093%=      5-min Rain = 0
KTAS 061138Z 35005KT 20/19 A3001 RMK A01 T02010191  RH  093%=      5-min Rain = 0
KTAS 061139Z 35006KT 20/19 A3001 RMK A01 T02010191  RH  093%=      5-min Rain = 0
KTAS 061140Z 35006KT 20/19 A3001 RMK A01 T02010191  RH  094%=      5-min Rain = 0
KTAS 061141Z 35007KT 20/19 A3001 RMK A01 T02010191  RH  094%=      5-min Rain = 0
KTAS 061142Z 35007KT 20/19 A3001 RMK A01 T02020191  RH  094%=      5-min Rain = 0
KTAS 061143Z 35008KT 20/19 A3001 RMK A01 T02020192  RH  094%=      5-min Rain = 0
KTAS 061144Z 35006KT 20/19 A3001 RMK A01 T02020192  RH  094%=      5-min Rain = 0
KTAS 061145Z 34007KT 20/19 A3001 RMK A01 T02030192  RH  094%=      5-min Rain = 0
KTAS 061146Z 35007KT 20/19 A3001 RMK A01 T02030192  RH  094%=      5-min Rain = 0
KTAS 061147Z 34007KT 20/19 A3001 RMK A01 T02030192  RH  094%=      5-min Rain = 0
KTAS 061148Z 35007KT 20/19 A3001 RMK A01 T02030192  RH  094%=      5-min Rain = 0
KTAS 061149Z 34007KT 20/19 A3001 RMK A01 T02030192  RH  094%=      5-min Rain = 0
KTAS 061150Z 35007KT 20/19 A3001 RMK A01 T02030192  RH  094%=      5-min Rain = 0
KTAS 061151Z 34007KT 20/19 A3001 RMK A01 T02030192  RH  094%=      5-min Rain = 0
KTAS 061152Z 35007KT 20/19 A3001 RMK A01 T02030192  RH  094%=      5-min Rain = 0
KTAS 061153Z 34007KT 20/19 A3001 RMK A01 T02030192  RH  094%=      5-min Rain = 0
KTAS 061154Z 34006KT 20/19 A3001 RMK A01 T02030193  RH  094%=      5-min Rain = 0
KTAS 061155Z 35007KT 20/19 A3001 RMK A01 T02030193  RH  094%=      5-min Rain = 0
KTAS 061156Z 35007KT 20/19 A3001 RMK A01 T02030193  RH  094%=      5-min Rain = 0
KTAS 061157Z 35007KT 20/19 A3001 RMK A01 T02030193  RH  094%=      5-min Rain = 0
KTAS 061158Z 35008KT 20/19 A3001 RMK A01 T02030193  RH  094%=      5-min Rain = 0
KTAS 061159Z 35007KT 20/19 A3001 RMK A01 T02040193  RH  094%=      5-min Rain = 0
KTAS 061200Z 35007KT 20/19 A3001 RMK A01 T02040193  RH  094%=      5-min Rain = 0
KTAS 061201Z 35007KT 20/19 A3001 RMK A01 T02040193  RH  093%=      5-min Rain = 0
KTAS 061202Z 35006KT 20/19 A3001 RMK A01 T02040193  RH  093%=      5-min Rain = 0
KTAS 061203Z 35007KT 20/19 A3001 RMK A01 T02040193  RH  093%=      5-min Rain = 0
KTAS 061204Z 36007KT 20/19 A3001 RMK A01 T02040193  RH  093%=      5-min Rain = 0
KTAS 061205Z 36005KT 20/19 A3001 RMK A01 T02040193  RH  093%=      5-min Rain = 0
KTAS 061206Z 35005KT 21/19 A3001 RMK A01 T02050193  RH  093%=      5-min Rain = 0
KTAS 061207Z 36006KT 21/19 A3001 RMK A01 T02050193  RH  093%=      5-min Rain = 0
KTAS 061208Z 36006KT 21/19 A3001 RMK A01 T02050193  RH  093%=      5-min Rain = 0
KTAS 061209Z 36006KT 21/19 A3001 RMK A01 T02050193  RH  093%=      5-min Rain = 0
KTAS 061210Z 35006KT 21/19 A3001 RMK A01 T02050193  RH  093%=      5-min Rain = 0
KTAS 061211Z 35006KT 21/19 A3001 RMK A01 T02050194  RH  093%=      5-min Rain = 0
KTAS 061212Z 34007KT 21/19 A3001 RMK A01 T02050193  RH  093%=      5-min Rain = 0
KTAS 061213Z 34007KT 21/19 A3001 RMK A01 T02050194  RH  093%=      5-min Rain = 0
KTAS 061214Z 34007KT 21/19 A3001 RMK A01 T02050193  RH  093%=      5-min Rain = 0
KTAS 061215Z 34007KT 21/19 A3001 RMK A01 T02050193  RH  093%=      5-min Rain = 0
KTAS 061216Z 34007KT 21/19 A3001 RMK A01 T02050193  RH  093%=      5-min Rain = 0
KTAS 061217Z 35007KT 21/19 A3001 RMK A01 T02050193  RH  093%=      5-min Rain = 0
KTAS 061218Z 35006KT 21/19 A3001 RMK A01 T02050193  RH  093%=      5-min Rain = 0
KTAS 061219Z 35006KT 21/19 A3001 RMK A01 T02060193  RH  093%=      5-min Rain = 0
KTAS 061220Z 35007KT 21/19 A3001 RMK A01 T02060194  RH  093%=      5-min Rain = 0
KTAS 061221Z 35007KT 21/19 A3001 RMK A01 T02060194  RH  093%=      5-min Rain = 0
KTAS 061222Z 35007KT 21/19 A3001 RMK A01 T02060194  RH  093%=      5-min Rain = 0
KTAS 061223Z 35006KT 21/19 A3001 RMK A01 T02060193  RH  093%=      5-min Rain = 0
KTAS 061224Z 35006KT 21/19 A3001 RMK A01 T02060194  RH  093%=      5-min Rain = 0
KTAS 061225Z 35006KT 21/19 A3001 RMK A01 T02060194  RH  093%=      5-min Rain = 0
KTAS 061226Z 35006KT 21/19 A3001 RMK A01 T02060194  RH  093%=      5-min Rain = 0
KTAS 061227Z 34007KT 21/19 A3001 RMK A01 T02060194  RH  093%=      5-min Rain = 0
KTAS 061228Z 34007KT 21/19 A3001 RMK A01 T02060194  RH  093%=      5-min Rain = 0
KTAS 061229Z 35007KT 21/19 A3001 RMK A01 T02060194  RH  093%=      5-min Rain = 0
KTAS 061230Z 35006KT 21/19 A3001 RMK A01 T02070194  RH  093%=      5-min Rain = 0
KTAS 061231Z 35007KT 21/19 A3001 RMK A01 T02070194  RH  093%=      5-min Rain = 0
KTAS 061232Z 35008KT 21/19 A3001 RMK A01 T02070194  RH  092%=      5-min Rain = 0
KTAS 061233Z 35008KT 21/19 A3001 RMK A01 T02070194  RH  092%=      5-min Rain = 0
KTAS 061234Z 36007KT 21/19 A3001 RMK A01 T02070194  RH  092%=      5-min Rain = 0
KTAS 061235Z 36007KT 21/19 A3001 RMK A01 T02070194  RH  092%=      5-min Rain = 0
KTAS 061236Z 00007KT 21/19 A3001 RMK A01 T02070194  RH  092%=      5-min Rain = 0
KTAS 061237Z 00007KT 21/20 A3001 RMK A01 T02080195  RH  092%=      5-min Rain = 0
KTAS 061238Z 01006KT 21/20 A3001 RMK A01 T02080195  RH  092%=      5-min Rain = 0
KTAS 061239Z 01006KT 21/20 A3001 RMK A01 T02080195  RH  092%=      5-min Rain = 0
KTAS 061240Z 01005KT 21/20 A3001 RMK A01 T02080195  RH  092%=      5-min Rain = 0
KTAS 061241Z 01007KT 21/20 A3001 RMK A01 T02080195  RH  092%=      5-min Rain = 0
KTAS 061242Z 02007KT 21/19 A3001 RMK A01 T02080194  RH  092%=      5-min Rain = 0
KTAS 061243Z 02007KT 21/20 A3002 RMK A01 T02080195  RH  092%=      5-min Rain = 0
KTAS 061244Z 02007KT 21/20 A3002 RMK A01 T02090195  RH  092%=      5-min Rain = 0
KTAS 061245Z 01006KT 21/20 A3002 RMK A01 T02090195  RH  092%=      5-min Rain = 0
KTAS 061246Z 02007KT 21/20 A3002 RMK A01 T02090195  RH  092%=      5-min Rain = 0
KTAS 061247Z 01006KT 21/20 A3002 RMK A01 T02080195  RH  092%=      5-min Rain = 0
KTAS 061248Z 01007KT 21/20 A3002 RMK A01 T02090195  RH  092%=      5-min Rain = 0
KTAS 061249Z 01006KT 21/19 A3002 RMK A01 T02090194  RH  092%=      5-min Rain = 0
KTAS 061250Z 01006KT 21/19 A3002 RMK A01 T02090194  RH  092%=      5-min Rain = 0
KTAS 061251Z 02005KT 21/19 A3002 RMK A01 T02090194  RH  092%=      5-min Rain = 0
KTAS 061252Z 02005KT 21/20 A3002 RMK A01 T02090195  RH  092%=      5-min Rain = 0
KTAS 061253Z 02005KT 21/20 A3002 RMK A01 T02090195  RH  092%=      5-min Rain = 0
KTAS 061254Z 02005KT 21/20 A3002 RMK A01 T02090195  RH  092%=      5-min Rain = 0
KTAS 061255Z 02005KT 21/20 A3002 RMK A01 T02100195  RH  092%=      5-min Rain = 0
KTAS 061256Z 02005KT 21/20 A3002 RMK A01 T02100196  RH  092%=      5-min Rain = 0
KTAS 061257Z 01005KT 21/20 A3003 RMK A01 T02100196  RH  092%=      5-min Rain = 0
KTAS 061258Z 01006KT 21/20 A3003 RMK A01 T02100196  RH  092%=      5-min Rain = 0
KTAS 061259Z 02006KT 21/20 A3003 RMK A01 T02100196  RH  091%=      5-min Rain = 0
KTAS 061300Z 01005KT 21/20 A3003 RMK A01 T02100196  RH  091%=      5-min Rain = 0
KTAS 061301Z 02006KT 21/20 A3003 RMK A01 T02110196  RH  091%=      5-min Rain = 0
KTAS 061302Z 01005KT 21/20 A3003 RMK A01 T02110196  RH  091%=      5-min Rain = 0
KTAS 061303Z 02005KT 21/20 A3003 RMK A01 T02110196  RH  091%=      5-min Rain = 0
KTAS 061304Z 02006KT 21/20 A3003 RMK A01 T02110196  RH  091%=      5-min Rain = 0
KTAS 061305Z 02007KT 21/20 A3003 RMK A01 T02110196  RH  091%=      5-min Rain = 0
KTAS 061306Z 02006KT 21/20 A3003 RMK A01 T02110196  RH  091%=      5-min Rain = 0
KTAS 061307Z 02005KT 21/20 A3003 RMK A01 T02110196  RH  091%=      5-min Rain = 0
KTAS 061308Z 02005KT 21/20 A3003 RMK A01 T02110196  RH  091%=      5-min Rain = 0
KTAS 061309Z 02005KT 21/20 A3003 RMK A01 T02110197  RH  091%=      5-min Rain = 0
KTAS 061310Z 02007KT 21/20 A3003 RMK A01 T02120197  RH  091%=      5-min Rain = 0
KTAS 061311Z 02006KT 21/20 A3003 RMK A01 T02110196  RH  091%=      5-min Rain = 0
KTAS 061312Z 02006KT 21/20 A3003 RMK A01 T02120197  RH  091%=      5-min Rain = 0
KTAS 061313Z 02006KT 21/20 A3003 RMK A01 T02120196  RH  091%=      5-min Rain = 0
KTAS 061314Z 02005KT 21/20 A3004 RMK A01 T02120197  RH  091%=      5-min Rain = 0
KTAS 061315Z 02005KT 21/20 A3004 RMK A01 T02120197  RH  091%=      5-min Rain = 0
KTAS 061316Z 02005KT 21/20 A3004 RMK A01 T02120197  RH  091%=      5-min Rain = 0
KTAS 061317Z 02005KT 21/20 A3004 RMK A01 T02120197  RH  091%=      5-min Rain = 0
KTAS 061318Z 02005KT 21/20 A3004 RMK A01 T02120197  RH  091%=      5-min Rain = 0
KTAS 061319Z 02006KT 21/20 A3004 RMK A01 T02120197  RH  091%=      5-min Rain = 0
KTAS 061320Z 02006KT 21/20 A3004 RMK A01 T02120196  RH  091%=      5-min Rain = 0
KTAS 061321Z 01006KT 21/20 A3004 RMK A01 T02120196  RH  091%=      5-min Rain = 0
KTAS 061322Z 01005KT 21/20 A3004 RMK A01 T02130197  RH  091%=      5-min Rain = 0
KTAS 061323Z 01006KT 21/20 A3004 RMK A01 T02130197  RH  091%=      5-min Rain = 0
KTAS 061324Z 00005KT 21/20 A3004 RMK A01 T02130197  RH  091%=      5-min Rain = 0
KTAS 061325Z 01005KT 21/20 A3004 RMK A01 T02130197  RH  091%=      5-min Rain = 0
KTAS 061326Z 01006KT 21/20 A3004 RMK A01 T02130197  RH  091%=      5-min Rain = 0
KTAS 061327Z 01006KT 21/20 A3004 RMK A01 T02130197  RH  091%=      5-min Rain = 0
KTAS 061328Z 02006KT 21/20 A3004 RMK A01 T02130197  RH  090%=      5-min Rain = 0
KTAS 061329Z 02006KT 21/20 A3004 RMK A01 T02130197  RH  090%=      5-min Rain = 0
KTAS 061330Z 02006KT 21/20 A3004 RMK A01 T02140198  RH  090%=      5-min Rain = 0
KTAS 061331Z 02005KT 21/20 A3004 RMK A01 T02140198  RH  090%=      5-min Rain = 0
KTAS 061332Z 02006KT 21/20 A3004 RMK A01 T02140198  RH  091%=      5-min Rain = 0
KTAS 061333Z 03007KT 21/20 A3004 RMK A01 T02140198  RH  090%=      5-min Rain = 0
KTAS 061334Z 03006KT 21/20 A3004 RMK A01 T02140197  RH  090%=      5-min Rain = 0
KTAS 061335Z 03005KT 21/20 A3004 RMK A01 T02140197  RH  090%=      5-min Rain = 0
KTAS 061336Z 04004KT 21/20 A3004 RMK A01 T02140198  RH  090%=      5-min Rain = 0
KTAS 061337Z 04004KT 22/20 A3004 RMK A01 T02150198  RH  090%=      5-min Rain = 0
KTAS 061338Z 04004KT 22/20 A3004 RMK A01 T02150198  RH  090%=      5-min Rain = 0
KTAS 061339Z 04005KT 21/20 A3004 RMK A01 T02140198  RH  090%=      5-min Rain = 0
KTAS 061340Z 04005KT 21/20 A3004 RMK A01 T02140197  RH  090%=      5-min Rain = 0
KTAS 061341Z 04004KT 21/20 A3004 RMK A01 T02140197  RH  090%=      5-min Rain = 0
KTAS 061342Z 05004KT 22/20 A3004 RMK A01 T02150197  RH  090%=      5-min Rain = 0
KTAS 061343Z 05004KT 22/20 A3004 RMK A01 T02150198  RH  090%=      5-min Rain = 0
KTAS 061344Z 05005KT 22/20 A3004 RMK A01 T02160198  RH  090%=      5-min Rain = 0
KTAS 061345Z 05006KT 22/20 A3004 RMK A01 T02150198  RH  090%=      5-min Rain = 0
KTAS 061346Z 05005KT 22/20 A3004 RMK A01 T02150198  RH  090%=      5-min Rain = 0
KTAS 061347Z 06005KT 22/20 A3004 RMK A01 T02150198  RH  090%=      5-min Rain = 0
KTAS 061348Z 05006KT 22/20 A3004 RMK A01 T02150197  RH  090%=      5-min Rain = 0
KTAS 061349Z 06005KT 22/20 A3004 RMK A01 T02150197  RH  090%=      5-min Rain = 0
KTAS 061350Z 05005KT 22/20 A3004 RMK A01 T02150198  RH  090%=      5-min Rain = 0
KTAS 061351Z 05006KT 22/20 A3004 RMK A01 T02150198  RH  090%=      5-min Rain = 0
KTAS 061352Z 05006KT 22/20 A3004 RMK A01 T02150198  RH  090%=      5-min Rain = 0
KTAS 061353Z 05007KT 22/20 A3004 RMK A01 T02160198  RH  090%=      5-min Rain = 0
KTAS 061354Z 05006KT 22/20 A3004 RMK A01 T02160198  RH  090%=      5-min Rain = 0
KTAS 061355Z 05005KT 22/20 A3004 RMK A01 T02160198  RH  090%=      5-min Rain = 0
KTAS 061356Z 05005KT 22/20 A3004 RMK A01 T02160198  RH  090%=      5-min Rain = 0
KTAS 061357Z 05005KT 22/20 A3004 RMK A01 T02160198  RH  090%=      5-min Rain = 0
KTAS 061358Z 05006KT 22/20 A3004 RMK A01 T02160199  RH  090%=      5-min Rain = 0
KTAS 061359Z 05006KT 22/20 A3004 RMK A01 T02160198  RH  090%=      5-min Rain = 0
KTAS 061400Z 04005KT 22/20 A3005 RMK A01 T02160198  RH  090%=      5-min Rain = 0
KTAS 061401Z 03006KT 22/20 A3005 RMK A01 T02170199  RH  090%=      5-min Rain = 0
KTAS 061402Z 05005KT 22/20 A3005 RMK A01 T02170199  RH  090%=      5-min Rain = 0
KTAS 061403Z 04006KT 22/20 A3005 RMK A01 T02170199  RH  089%=      5-min Rain = 0
KTAS 061404Z 04005KT 22/20 A3005 RMK A01 T02170199  RH  089%=      5-min Rain = 0
KTAS 061405Z 05004KT 22/20 A3005 RMK A01 T02170199  RH  089%=      5-min Rain = 0
KTAS 061406Z 04005KT 22/20 A3005 RMK A01 T02180200  RH  090%=      5-min Rain = 0
KTAS 061407Z 04006KT 22/20 A3005 RMK A01 T02180200  RH  089%=      5-min Rain = 0
KTAS 061408Z 04006KT 22/20 A3005 RMK A01 T02180200  RH  089%=      5-min Rain = 0
KTAS 061409Z 03006KT 22/20 A3005 RMK A01 T02180200  RH  089%=      5-min Rain = 0
KTAS 061410Z 04004KT 22/20 A3005 RMK A01 T02190201  RH  089%=      5-min Rain = 0
KTAS 061411Z 04005KT 22/20 A3005 RMK A01 T02190201  RH  089%=      5-min Rain = 0
KTAS 061412Z 04005KT 22/20 A3005 RMK A01 T02200201  RH  089%=      5-min Rain = 0
KTAS 061413Z 04005KT 22/20 A3005 RMK A01 T02200202  RH  089%=      5-min Rain = 0
KTAS 061414Z 04005KT 22/20 A3005 RMK A01 T02210203  RH  089%=      5-min Rain = 0
KTAS 061415Z 05005KT 22/20 A3005 RMK A01 T02210202  RH  089%=      5-min Rain = 0
KTAS 061416Z 05007KT 22/20 A3005 RMK A01 T02220203  RH  089%=      5-min Rain = 0
KTAS 061417Z 05008KT 22/20 A3005 RMK A01 T02230203  RH  088%=      5-min Rain = 0
KTAS 061418Z 05008KT 23/20 A3005 RMK A01 T02250203  RH  087%=      5-min Rain = 0
KTAS 061419Z 04008KT 23/20 A3005 RMK A01 T02260203  RH  087%=      5-min Rain = 0
KTAS 061420Z 03009KT 23/20 A3005 RMK A01 T02270203  RH  086%=      5-min Rain = 0
KTAS 061421Z 04008KT 23/20 A3005 RMK A01 T02280202  RH  085%=      5-min Rain = 0
KTAS 061422Z 03009KT 23/20 A3005 RMK A01 T02280200  RH  085%=      5-min Rain = 0
KTAS 061423Z 04007KT 23/20 A3005 RMK A01 T02280200  RH  085%=      5-min Rain = 0
KTAS 061424Z 05009KT 23/20 A3005 RMK A01 T02280201  RH  085%=      5-min Rain = 0
KTAS 061425Z 04007KT 23/20 A3005 RMK A01 T02280201  RH  085%=      5-min Rain = 0
KTAS 061426Z 03007KT 23/20 A3005 RMK A01 T02300203  RH  085%=      5-min Rain = 0
KTAS 061427Z 03010KT 23/20 A3005 RMK A01 T02300201  RH  084%=      5-min Rain = 0
KTAS 061428Z 03010KT 23/20 A3005 RMK A01 T02290199  RH  083%=      5-min Rain = 0
KTAS 061429Z 03009KT 23/20 A3005 RMK A01 T02290199  RH  083%=      5-min Rain = 0
KTAS 061430Z 03010KT 23/20 A3005 RMK A01 T02310201  RH  083%=      5-min Rain = 0
KTAS 061431Z 03009KT 23/20 A3005 RMK A01 T02340202  RH  082%=      5-min Rain = 0
KTAS 061432Z 03010KT 23/20 A3005 RMK A01 T02340199  RH  081%=      5-min Rain = 0
KTAS 061433Z 03008KT 23/20 A3005 RMK A01 T02330197  RH  080%=      5-min Rain = 0
KTAS 061434Z 04007KT 23/20 A3005 RMK A01 T02330200  RH  082%=      5-min Rain = 0
KTAS 061435Z 03008KT 23/20 A3005 RMK A01 T02340201  RH  082%=      5-min Rain = 0
KTAS 061436Z 03010KT 23/20 A3005 RMK A01 T02320199  RH  082%=      5-min Rain = 0
KTAS 061437Z 03008KT 23/20 A3005 RMK A01 T02310198  RH  082%=      5-min Rain = 0
KTAS 061438Z 03009KT 23/20 A3005 RMK A01 T02320199  RH  082%=      5-min Rain = 0
KTAS 061439Z 03007KT 23/20 A3005 RMK A01 T02330202  RH  082%=      5-min Rain = 0
KTAS 061440Z 03008KT 23/20 A3005 RMK A01 T02340202  RH  082%=      5-min Rain = 0
KTAS 061441Z 03008KT 23/20 A3005 RMK A01 T02330198  RH  081%=      5-min Rain = 0
KTAS 061442Z 03009KT 23/20 A3005 RMK A01 T02320197  RH  081%=      5-min Rain = 0
KTAS 061443Z 02009KT 23/20 A3005 RMK A01 T02310198  RH  082%=      5-min Rain = 0
KTAS 061444Z 02010KT 23/20 A3005 RMK A01 T02310198  RH  082%=      5-min Rain = 0
KTAS 061445Z 01009KT 23/20 A3005 RMK A01 T02300197  RH  081%=      5-min Rain = 0
KTAS 061446Z 01006KT 23/20 A3005 RMK A01 T02300197  RH  081%=      5-min Rain = 0
KTAS 061447Z 03008KT 23/20 A3005 RMK A01 T02300198  RH  082%=      5-min Rain = 0
KTAS 061448Z 04009KT 23/20 A3005 RMK A01 T02310199  RH  082%=      5-min Rain = 0
KTAS 061449Z 04007KT 23/20 A3005 RMK A01 T02310198  RH  082%=      5-min Rain = 0
KTAS 061450Z 03008KT 23/20 A3005 RMK A01 T02320197  RH  081%=      5-min Rain = 0
KTAS 061451Z 03007KT 23/20 A3005 RMK A01 T02330199  RH  081%=      5-min Rain = 0
KTAS 061452Z 02007KT 24/20 A3005 RMK A01 T02360203  RH  082%=      5-min Rain = 0
KTAS 061453Z 02008KT 24/20 A3005 RMK A01 T02360201  RH  081%=      5-min Rain = 0
KTAS 061454Z 03010KT 24/20 A3005 RMK A01 T02370201  RH  080%=      5-min Rain = 0
KTAS 061455Z 03010KT 24/20 A3005 RMK A01 T02360199  RH  080%=      5-min Rain = 0
KTAS 061456Z 03009KT 23/20 A3005 RMK A01 T02340197  RH  079%=      5-min Rain = 0
KTAS 061457Z 03009KT 23/20 A3005 RMK A01 T02340197  RH  080%=      5-min Rain = 0
KTAS 061458Z 03008KT 24/20 A3005 RMK A01 T02350201  RH  081%=      5-min Rain = 0
KTAS 061459Z 03007KT 24/20 A3005 RMK A01 T02360202  RH  081%=      5-min Rain = 0
KTAS 061500Z 02008KT 24/20 A3005 RMK A01 T02370202  RH  081%=      5-min Rain = 0
KTAS 061501Z 03008KT 24/20 A3005 RMK A01 T02380202  RH  080%=      5-min Rain = 0
KTAS 061502Z 02008KT 24/20 A3005 RMK A01 T02400201  RH  079%=      5-min Rain = 0
KTAS 061503Z 03007KT 24/20 A3005 RMK A01 T02420203  RH  079%=      5-min Rain = 0
KTAS 061504Z 04008KT 24/20 A3005 RMK A01 T02420200  RH  077%=      5-min Rain = 0
KTAS 061505Z 04007KT 24/20 A3005 RMK A01 T02410199  RH  077%=      5-min Rain = 0
KTAS 061506Z 04009KT 24/20 A3005 RMK A01 T02400200  RH  078%=      5-min Rain = 0
KTAS 061507Z 04009KT 24/20 A3005 RMK A01 T02390197  RH  077%=      5-min Rain = 0
KTAS 061508Z 04009KT 24/20 A3005 RMK A01 T02370195  RH  077%=      5-min Rain = 0
KTAS 061509Z 04009KT 24/20 A3005 RMK A01 T02370197  RH  078%=      5-min Rain = 0
KTAS 061510Z 04008KT 24/20 A3005 RMK A01 T02370196  RH  078%=      5-min Rain = 0
KTAS 061511Z 05008KT 24/20 A3005 RMK A01 T02370196  RH  078%=      5-min Rain = 0
KTAS 061512Z 05008KT 24/20 A3005 RMK A01 T02370196  RH  078%=      5-min Rain = 0
KTAS 061513Z 05007KT 24/20 A3005 RMK A01 T02370199  RH  079%=      5-min Rain = 0
KTAS 061514Z 05006KT 24/20 A3005 RMK A01 T02380200  RH  079%=      5-min Rain = 0
KTAS 061515Z 05008KT 24/20 A3005 RMK A01 T02390200  RH  079%=      5-min Rain = 0
KTAS 061516Z 05007KT 24/20 A3005 RMK A01 T02390199  RH  078%=      5-min Rain = 0
KTAS 061517Z 04008KT 24/20 A3005 RMK A01 T02390198  RH  078%=      5-min Rain = 0
KTAS 061518Z 02008KT 24/20 A3005 RMK A01 T02380198  RH  078%=      5-min Rain = 0
KTAS 061519Z 02008KT 24/20 A3005 RMK A01 T02390198  RH  078%=      5-min Rain = 0
KTAS 061520Z 03008KT 24/20 A3005 RMK A01 T02400200  RH  078%=      5-min Rain = 0
KTAS 061521Z 02007KT 24/20 A3005 RMK A01 T02420202  RH  078%=      5-min Rain = 0
KTAS 061522Z 04009KT 24/20 A3005 RMK A01 T02420199  RH  077%=      5-min Rain = 0
KTAS 061523Z 04008KT 24/20 A3005 RMK A01 T02410196  RH  076%=      5-min Rain = 0
KTAS 061524Z 05007KT 24/20 A3005 RMK A01 T02400198  RH  077%=      5-min Rain = 0
KTAS 061525Z 02008KT 24/20 A3005 RMK A01 T02420200  RH  077%=      5-min Rain = 0
KTAS 061526Z 02009KT 24/20 A3005 RMK A01 T02420198  RH  076%=      5-min Rain = 0
KTAS 061527Z 02008KT 24/20 A3005 RMK A01 T02420198  RH  076%=      5-min Rain = 0
KTAS 061528Z 04007KT 24/20 A3005 RMK A01 T02430198  RH  076%=      5-min Rain = 0
KTAS 061529Z 03007KT 24/20 A3005 RMK A01 T02420197  RH  076%=      5-min Rain = 0
KTAS 061530Z 03006KT 24/20 A3005 RMK A01 T02420198  RH  076%=      5-min Rain = 0
KTAS 061531Z 05008KT 25/20 A3005 RMK A01 T02450201  RH  076%=      5-min Rain = 0
KTAS 061532Z 05009KT 24/20 A3005 RMK A01 T02440197  RH  075%=      5-min Rain = 0
KTAS 061533Z 03008KT 24/20 A3005 RMK A01 T02420197  RH  076%=      5-min Rain = 0
KTAS 061534Z 04008KT 24/20 A3005 RMK A01 T02430199  RH  077%=      5-min Rain = 0
KTAS 061535Z 04007KT 24/20 A3005 RMK A01 T02430199  RH  076%=      5-min Rain = 0
KTAS 061536Z 04006KT 24/20 A3005 RMK A01 T02440199  RH  076%=      5-min Rain = 0
KTAS 061537Z 04006KT 25/20 A3005 RMK A01 T02470203  RH  076%=      5-min Rain = 0
KTAS 061538Z 02006KT 25/20 A3005 RMK A01 T02490201  RH  074%=      5-min Rain = 0
KTAS 061539Z 00006KT 25/20 A3005 RMK A01 T02480200  RH  075%=      5-min Rain = 0
KTAS 061540Z 36007KT 25/20 A3005 RMK A01 T02480201  RH  075%=      5-min Rain = 0
KTAS 061541Z 36008KT 25/20 A3006 RMK A01 T02470199  RH  075%=      5-min Rain = 0
KTAS 061542Z 35008KT 25/20 A3006 RMK A01 T02450198  RH  075%=      5-min Rain = 0
KTAS 061543Z 35007KT 24/20 A3006 RMK A01 T02440198  RH  075%=      5-min Rain = 0
KTAS 061544Z 01006KT 25/20 A3006 RMK A01 T02460202  RH  076%=      5-min Rain = 0
KTAS 061545Z 02007KT 25/21 A3006 RMK A01 T02500205  RH  076%=      5-min Rain = 0
KTAS 061546Z 01007KT 25/20 A3006 RMK A01 T02500202  RH  075%=      5-min Rain = 0
KTAS 061547Z 02007KT 25/20 A3006 RMK A01 T02480200  RH  074%=      5-min Rain = 0
KTAS 061548Z 01005KT 25/20 A3006 RMK A01 T02480202  RH  076%=      5-min Rain = 0
KTAS 061549Z 01004KT 25/20 A3006 RMK A01 T02460198  RH  075%=      5-min Rain = 0
KTAS 061550Z 03003KT 25/20 A3006 RMK A01 T02450198  RH  075%=      5-min Rain = 0
KTAS 061551Z 01004KT 25/20 A3006 RMK A01 T02470201  RH  075%=      5-min Rain = 0
KTAS 061552Z 01006KT 25/21 A3006 RMK A01 T02510205  RH  076%=      5-min Rain = 0
KTAS 061553Z 01006KT 26/21 A3006 RMK A01 T02550207  RH  075%=      5-min Rain = 0
KTAS 061554Z 01007KT 26/21 A3006 RMK A01 T02570207  RH  074%=      5-min Rain = 0
KTAS 061555Z 01007KT 26/21 A3006 RMK A01 T02570205  RH  073%=      5-min Rain = 0
KTAS 061556Z 00005KT 26/20 A3005 RMK A01 T02560202  RH  072%=      5-min Rain = 0
KTAS 061557Z 36007KT 26/21 A3005 RMK A01 T02590208  RH  074%=      5-min Rain = 0
KTAS 061558Z 35006KT 26/20 A3005 RMK A01 T02570203  RH  072%=      5-min Rain = 0
KTAS 061559Z 01007KT 26/21 A3005 RMK A01 T02580205  RH  073%=      5-min Rain = 0
KTAS 061600Z 00007KT 26/21 A3005 RMK A01 T02580207  RH  073%=      5-min Rain = 0
KTAS 061601Z 03008KT 26/21 A3005 RMK A01 T02580206  RH  073%=      5-min Rain = 0
KTAS 061602Z 04007KT 26/20 A3005 RMK A01 T02580201  RH  071%=      5-min Rain = 0
KTAS 061603Z 04007KT 26/20 A3005 RMK A01 T02570201  RH  071%=      5-min Rain = 0
KTAS 061604Z 05008KT 26/21 A3005 RMK A01 T02580205  RH  073%=      5-min Rain = 0
KTAS 061605Z 05007KT 26/20 A3005 RMK A01 T02590204  RH  071%=      5-min Rain = 0
KTAS 061606Z 03008KT 26/20 A3005 RMK A01 T02580202  RH  071%=      5-min Rain = 0
KTAS 061607Z 03006KT 26/20 A3005 RMK A01 T02560201  RH  071%=      5-min Rain = 0
KTAS 061608Z 03006KT 26/20 A3005 RMK A01 T02550201  RH  072%=      5-min Rain = 0
KTAS 061609Z 01006KT 26/21 A3005 RMK A01 T02550205  RH  074%=      5-min Rain = 0
KTAS 061610Z 02007KT 26/21 A3005 RMK A01 T02570207  RH  074%=      5-min Rain = 0
KTAS 061611Z 01009KT 26/21 A3005 RMK A01 T02620211  RH  073%=      5-min Rain = 0
KTAS 061612Z 02008KT 26/21 A3005 RMK A01 T02640206  RH  071%=      5-min Rain = 0
KTAS 061613Z 02007KT 26/20 A3005 RMK A01 T02610201  RH  070%=      5-min Rain = 0
KTAS 061614Z 00007KT 26/20 A3006 RMK A01 T02560199  RH  071%=      5-min Rain = 0
KTAS 061615Z 01005KT 25/20 A3006 RMK A01 T02540202  RH  073%=      5-min Rain = 0
KTAS 061616Z 35006KT 25/20 A3006 RMK A01 T02530200  RH  073%=      5-min Rain = 0
KTAS 061617Z 01007KT 25/20 A3006 RMK A01 T02530203  RH  074%=      5-min Rain = 0
KTAS 061618Z 01007KT 25/20 A3006 RMK A01 T02540200  RH  072%=      5-min Rain = 0
KTAS 061619Z 03007KT 26/20 A3006 RMK A01 T02570204  RH  073%=      5-min Rain = 0
KTAS 061620Z 03006KT 26/20 A3006 RMK A01 T02570201  RH  071%=      5-min Rain = 0
KTAS 061621Z 02004KT 26/20 A3006 RMK A01 T02570200  RH  071%=      5-min Rain = 0
KTAS 061622Z 02009KT 26/20 A3006 RMK A01 T02580204  RH  072%=      5-min Rain = 0
KTAS 061623Z 36007KT 26/20 A3006 RMK A01 T02600204  RH  071%=      5-min Rain = 0
KTAS 061624Z 36008KT 26/21 A3006 RMK A01 T02630206  RH  071%=      5-min Rain = 0
KTAS 061625Z 01007KT 26/20 A3006 RMK A01 T02620202  RH  070%=      5-min Rain = 0
KTAS 061626Z 01005KT 26/20 A3006 RMK A01 T02590201  RH  070%=      5-min Rain = 0
KTAS 061627Z 00006KT 26/20 A3006 RMK A01 T02570201  RH  071%=      5-min Rain = 0
KTAS 061628Z 35008KT 26/21 A3006 RMK A01 T02600206  RH  072%=      5-min Rain = 0
KTAS 061629Z 35009KT 26/21 A3006 RMK A01 T02620205  RH  071%=      5-min Rain = 0
KTAS 061630Z 35010KT 26/21 A3006 RMK A01 T02630205  RH  070%=      5-min Rain = 0
KTAS 061631Z 35007KT 26/20 A3006 RMK A01 T02620203  RH  070%=      5-min Rain = 0
KTAS 061632Z 01007KT 26/20 A3006 RMK A01 T02610203  RH  070%=      5-min Rain = 0
KTAS 061633Z 02003KT 26/20 A3006 RMK A01 T02600201  RH  070%=      5-min Rain = 0
KTAS 061634Z 36003KT 26/20 A3006 RMK A01 T02610203  RH  070%=      5-min Rain = 0
KTAS 061635Z 36003KT 26/20 A3006 RMK A01 T02610203  RH  070%=      5-min Rain = 0
KTAS 061636Z 00008KT 26/20 A3006 RMK A01 T02630204  RH  070%=      5-min Rain = 0
KTAS 061637Z 36007KT 26/20 A3006 RMK A01 T02640204  RH  069%=      5-min Rain = 0
KTAS 061638Z 36007KT 27/21 A3006 RMK A01 T02660208  RH  070%=      5-min Rain = 0
KTAS 061639Z 02006KT 27/21 A3006 RMK A01 T02680205  RH  068%=      5-min Rain = 0
KTAS 061640Z 05006KT 27/21 A3006 RMK A01 T02710208  RH  068%=      5-min Rain = 0
KTAS 061641Z 04006KT 27/21 A3006 RMK A01 T02730205  RH  067%=      5-min Rain = 0
KTAS 061642Z 05005KT 27/21 A3006 RMK A01 T02720205  RH  067%=      5-min Rain = 0
KTAS 061643Z 03006KT 27/20 A3006 RMK A01 T02710203  RH  066%=      5-min Rain = 0
KTAS 061644Z 02007KT 27/20 A3006 RMK A01 T02670201  RH  067%=      5-min Rain = 0
KTAS 061645Z 36005KT 27/20 A3006 RMK A01 T02650200  RH  068%=      5-min Rain = 0
KTAS 061646Z 01006KT 27/20 A3006 RMK A01 T02660202  RH  068%=      5-min Rain = 0
KTAS 061647Z 01008KT 27/20 A3006 RMK A01 T02650201  RH  068%=      5-min Rain = 0
KTAS 061648Z 35006KT 26/20 A3006 RMK A01 T02630200  RH  068%=      5-min Rain = 0
KTAS 061649Z 34005KT 26/20 A3006 RMK A01 T02620196  RH  067%=      5-min Rain = 0
KTAS 061650Z 00008KT 26/20 A3006 RMK A01 T02620201  RH  069%=      5-min Rain = 0
KTAS 061651Z 05007KT 27/20 A3006 RMK A01 T02660204  RH  069%=      5-min Rain = 0
KTAS 061652Z 05005KT 27/20 A3006 RMK A01 T02660200  RH  067%=      5-min Rain = 0
KTAS 061653Z 02006KT 27/21 A3006 RMK A01 T02690207  RH  069%=      5-min Rain = 0
KTAS 061654Z 01007KT 27/20 A3006 RMK A01 T02710204  RH  067%=      5-min Rain = 0
KTAS 061655Z 02005KT 27/20 A3006 RMK A01 T02700202  RH  066%=      5-min Rain = 0
KTAS 061656Z 01006KT 27/20 A3006 RMK A01 T02710202  RH  066%=      5-min Rain = 0
KTAS 061657Z 02006KT 27/20 A3006 RMK A01 T02720203  RH  066%=      5-min Rain = 0
KTAS 061658Z 36007KT 27/21 A3006 RMK A01 T02740205  RH  066%=      5-min Rain = 0
KTAS 061659Z 00009KT 27/20 A3006 RMK A01 T02740199  RH  063%=      5-min Rain = 0
KTAS 061700Z 02008KT 27/20 A3006 RMK A01 T02740200  RH  064%=      5-min Rain = 0
KTAS 061701Z 03005KT 27/20 A3006 RMK A01 T02740200  RH  064%=      5-min Rain = 0
KTAS 061702Z 04005KT 28/20 A3006 RMK A01 T02750199  RH  063%=      5-min Rain = 0
KTAS 061703Z 05005KT 27/20 A3006 RMK A01 T02730195  RH  063%=      5-min Rain = 0
KTAS 061704Z 04004G9KT 27/20 A3006 RMK A01 T02710195  RH  063%=      5-min Rain = 0
KTAS 061705Z 03007KT 27/20 A3006 RMK A01 T02690195  RH  064%=      5-min Rain = 0
KTAS 061706Z 05007KT 27/20 A3006 RMK A01 T02710201  RH  066%=      5-min Rain = 0
KTAS 061707Z 07007KT 27/20 A3006 RMK A01 T02730200  RH  064%=      5-min Rain = 0
KTAS 061708Z 05005KT 27/20 A3006 RMK A01 T02730200  RH  064%=      5-min Rain = 0
KTAS 061709Z 04007KT 28/20 A3006 RMK A01 T02750202  RH  064%=      5-min Rain = 0
KTAS 061710Z 03006KT 28/20 A3006 RMK A01 T02750197  RH  063%=      5-min Rain = 0
KTAS 061711Z 36007KT 28/20 A3006 RMK A01 T02750201  RH  064%=      5-min Rain = 0
KTAS 061712Z 01004KT 27/20 A3006 RMK A01 T02740199  RH  064%=      5-min Rain = 0
KTAS 061713Z 05005KT 28/20 A3006 RMK A01 T02750204  RH  065%=      5-min Rain = 0
KTAS 061714Z 04007KT 28/20 A3006 RMK A01 T02770204  RH  064%=      5-min Rain = 0
KTAS 061715Z 03009KT 28/20 A3006 RMK A01 T02790204  RH  063%=      5-min Rain = 0
KTAS 061716Z 03007KT 28/20 A3006 RMK A01 T02820203  RH  062%=      5-min Rain = 0
KTAS 061717Z 03007KT 28/20 A3006 RMK A01 T02810197  RH  060%=      5-min Rain = 0
KTAS 061718Z 05007KT 28/20 A3006 RMK A01 T02790198  RH  062%=      5-min Rain = 0
KTAS 061719Z 05007KT 28/20 A3006 RMK A01 T02810200  RH  062%=      5-min Rain = 0
KTAS 061720Z 05008KT 28/20 A3006 RMK A01 T02790197  RH  061%=      5-min Rain = 0
KTAS 061721Z 05006KT 28/20 A3006 RMK A01 T02790201  RH  062%=      5-min Rain = 0
KTAS 061722Z 06009KT 28/20 A3006 RMK A01 T02810198  RH  061%=      5-min Rain = 0
KTAS 061723Z 07008KT 28/20 A3006 RMK A01 T02790196  RH  060%=      5-min Rain = 0
KTAS 061724Z 07006KT 28/20 A3006 RMK A01 T02780195  RH  061%=      5-min Rain = 0
KTAS 061725Z 06008KT 28/20 A3006 RMK A01 T02780197  RH  061%=      5-min Rain = 0
KTAS 061726Z 06007KT 28/20 A3006 RMK A01 T02790198  RH  061%=      5-min Rain = 0
KTAS 061727Z 05008KT 28/20 A3006 RMK A01 T02790196  RH  061%=      5-min Rain = 0
KTAS 061728Z 06008KT 28/19 A3006 RMK A01 T02780194  RH  060%=      5-min Rain = 0
KTAS 061729Z 06006KT 28/20 A3006 RMK A01 T02770197  RH  062%=      5-min Rain = 0
KTAS 061730Z 05006KT 28/20 A3006 RMK A01 T02800197  RH  061%=      5-min Rain = 0
KTAS 061731Z 06004KT 28/20 A3006 RMK A01 T02800195  RH  060%=      5-min Rain = 0
KTAS 061732Z 05004KT 28/20 A3006 RMK A01 T02800196  RH  060%=      5-min Rain = 0
KTAS 061733Z 05004KT 28/20 A3006 RMK A01 T02810196  RH  060%=      5-min Rain = 0
KTAS 061734Z 03007KT 28/20 A3006 RMK A01 T02830198  RH  060%=      5-min Rain = 0
KTAS 061735Z 03005KT 29/20 A3006 RMK A01 T02850201  RH  060%=      5-min Rain = 0
KTAS 061736Z 02006G11KT 29/20 A3006 RMK A01 T02890203  RH  060%=      5-min Rain = 0
KTAS 061737Z 02010KT 29/20 A3006 RMK A01 T02900200  RH  058%=      5-min Rain = 0
KTAS 061738Z 03008KT 29/20 A3006 RMK A01 T02900197  RH  057%=      5-min Rain = 0
KTAS 061739Z 03005KT 29/19 A3006 RMK A01 T02880194  RH  057%=      5-min Rain = 0
KTAS 061740Z 01003KT 29/19 A3006 RMK A01 T02850189  RH  056%=      5-min Rain = 0
KTAS 061741Z 00004KT 29/19 A3006 RMK A01 T02850193  RH  058%=      5-min Rain = 0
KTAS 061742Z 04004KT 29/20 A3006 RMK A01 T02860195  RH  058%=      5-min Rain = 0
KTAS 061743Z 04006KT 29/20 A3006 RMK A01 T02900200  RH  058%=      5-min Rain = 0
KTAS 061744Z 03007KT 29/20 A3006 RMK A01 T02920197  RH  057%=      5-min Rain = 0
KTAS 061745Z 06007KT 30/20 A3006 RMK A01 T02960201  RH  057%=      5-min Rain = 0
KTAS 061746Z 06010KT 30/20 A3006 RMK A01 T02970197  RH  055%=      5-min Rain = 0
KTAS 061747Z 06006KT 29/19 A3006 RMK A01 T02940192  RH  054%=      5-min Rain = 0
KTAS 061748Z 03006KT 29/19 A3006 RMK A01 T02910193  RH  056%=      5-min Rain = 0
KTAS 061749Z 02007KT 29/20 A3006 RMK A01 T02930197  RH  056%=      5-min Rain = 0
KTAS 061750Z 01006KT 29/20 A3006 RMK A01 T02930195  RH  056%=      5-min Rain = 0
KTAS 061751Z 04005KT 29/20 A3006 RMK A01 T02920195  RH  056%=      5-min Rain = 0
KTAS 061752Z 05005KT 29/20 A3006 RMK A01 T02900195  RH  056%=      5-min Rain = 0
KTAS 061753Z 04004KT 29/20 A3006 RMK A01 T02880196  RH  058%=      5-min Rain = 0
KTAS 061754Z 04006KT 29/20 A3006 RMK A01 T02870197  RH  058%=      5-min Rain = 0
KTAS 061755Z 06006KT 28/19 A3006 RMK A01 T02840192  RH  057%=      5-min Rain = 0
KTAS 061756Z 05007KT 28/19 A3006 RMK A01 T02820193  RH  059%=      5-min Rain = 0
KTAS 061757Z 05008KT 28/19 A3006 RMK A01 T02810194  RH  059%=      5-min Rain = 0
KTAS 061758Z 04006KT 28/19 A3006 RMK A01 T02810194  RH  059%=      5-min Rain = 0
KTAS 061759Z 05005KT 28/20 A3006 RMK A01 T02830198  RH  060%=      5-min Rain = 0
KTAS 061800Z 06006KT 28/20 A3006 RMK A01 T02840197  RH  059%=      5-min Rain = 0
KTAS 061801Z 07005KT 28/19 A3006 RMK A01 T02840191  RH  057%=      5-min Rain = 0
KTAS 061802Z 07004KT 29/20 A3006 RMK A01 T02860195  RH  058%=      5-min Rain = 0
KTAS 061803Z 05009KT 29/20 A3006 RMK A01 T02920197  RH  057%=      5-min Rain = 0
KTAS 061804Z 06008KT 30/20 A3006 RMK A01 T02950195  RH  055%=      5-min Rain = 0
KTAS 061805Z 08006KT 30/19 A3006 RMK A01 T02960193  RH  054%=      5-min Rain = 0
KTAS 061806Z 06004KT 30/19 A3006 RMK A01 T02950191  RH  054%=      5-min Rain = 0
KTAS 061807Z 03005KT 30/19 A3006 RMK A01 T02950193  RH  054%=      5-min Rain = 0
KTAS 061808Z 02005KT 29/19 A3006 RMK A01 T02920192  RH  055%=      5-min Rain = 0
KTAS 061809Z 06005KT 29/19 A3006 RMK A01 T02880188  RH  055%=      5-min Rain = 0
KTAS 061810Z 07006KT 29/19 A3006 RMK A01 T02860191  RH  056%=      5-min Rain = 0
KTAS 061811Z 05008KT 29/19 A3006 RMK A01 T02860192  RH  057%=      5-min Rain = 0
KTAS 061812Z 05006KT 28/19 A3006 RMK A01 T02830190  RH  057%=      5-min Rain = 0
KTAS 061813Z 07004KT 28/19 A3006 RMK A01 T02840192  RH  058%=      5-min Rain = 0
KTAS 061814Z 08008KT 29/20 A3006 RMK A01 T02910197  RH  057%=      5-min Rain = 0
KTAS 061815Z 08005KT 30/20 A3006 RMK A01 T02960195  RH  055%=      5-min Rain = 0
KTAS 061816Z 07004KT 29/19 A3006 RMK A01 T02940189  RH  053%=      5-min Rain = 0
KTAS 061817Z 04005KT 29/19 A3006 RMK A01 T02900188  RH  054%=      5-min Rain = 0
KTAS 061818Z 05004KT 29/19 A3006 RMK A01 T02880190  RH  055%=      5-min Rain = 0
KTAS 061819Z 06006KT 29/19 A3006 RMK A01 T02890191  RH  055%=      5-min Rain = 0
KTAS 061820Z 08007KT 29/19 A3006 RMK A01 T02870188  RH  055%=      5-min Rain = 0
KTAS 061821Z 05007KT 29/19 A3005 RMK A01 T02860187  RH  055%=      5-min Rain = 0
KTAS 061822Z 03006KT 29/19 A3006 RMK A01 T02850194  RH  058%=      5-min Rain = 0
KTAS 061823Z 05005KT 28/19 A3006 RMK A01 T02840194  RH  058%=      5-min Rain = 0
KTAS 061824Z 06006KT 29/19 A3006 RMK A01 T02850194  RH  058%=      5-min Rain = 0
KTAS 061825Z 06007KT 29/20 A3005 RMK A01 T02850196  RH  059%=      5-min Rain = 0
KTAS 061826Z 05009KT 28/20 A3005 RMK A01 T02840195  RH  059%=      5-min Rain = 0
KTAS 061827Z 04007KT 28/20 A3005 RMK A01 T02830196  RH  059%=      5-min Rain = 0
KTAS 061828Z 04006KT 29/20 A3006 RMK A01 T02860197  RH  059%=      5-min Rain = 0
KTAS 061829Z 06008KT 29/20 A3006 RMK A01 T02880198  RH  058%=      5-min Rain = 0
KTAS 061830Z 05009KT 29/20 A3005 RMK A01 T02860196  RH  058%=      5-min Rain = 0
KTAS 061831Z 06009KT 28/20 A3005 RMK A01 T02840199  RH  060%=      5-min Rain = 0
KTAS 061832Z 07011KT 28/20 A3005 RMK A01 T02830197  RH  059%=      5-min Rain = 0
KTAS 061833Z 07012KT 28/19 A3005 RMK A01 T02800194  RH  060%=      5-min Rain = 0
KTAS 061834Z 06012KT 28/19 A3005 RMK A01 T02780194  RH  060%=      5-min Rain = 0
KTAS 061835Z 06010KT 28/19 A3006 RMK A01 T02760193  RH  060%=      5-min Rain = 0
KTAS 061836Z 07010KT 28/19 A3006 RMK A01 T02750194  RH  061%=      5-min Rain = 0
KTAS 061837Z 07010KT 28/20 A3006 RMK A01 T02750195  RH  062%=      5-min Rain = 0
KTAS 061838Z 07007KT 28/20 A3006 RMK A01 T02750196  RH  062%=      5-min Rain = 0
KTAS 061839Z 08007KT 28/20 A3006 RMK A01 T02770196  RH  062%=      5-min Rain = 0
KTAS 061840Z 08008KT 28/20 A3005 RMK A01 T02770195  RH  061%=      5-min Rain = 0
KTAS 061841Z 08010KT 28/19 A3005 RMK A01 T02790193  RH  059%=      5-min Rain = 0
KTAS 061842Z 08009KT 28/20 A3005 RMK A01 T02830197  RH  060%=      5-min Rain = 0
KTAS 061843Z 09010KT 29/20 A3005 RMK A01 T02850195  RH  058%=      5-min Rain = 0
KTAS 061844Z 08008KT 29/19 A3005 RMK A01 T02850194  RH  058%=      5-min Rain = 0
KTAS 061845Z 08010KT 28/19 A3005 RMK A01 T02840190  RH  057%=      5-min Rain = 0
KTAS 061846Z 10007KT 28/19 A3005 RMK A01 T02820192  RH  058%=      5-min Rain = 0
KTAS 061847Z 10008KT 28/19 A3005 RMK A01 T02820193  RH  058%=      5-min Rain = 0
KTAS 061848Z 12010KT 28/20 A3005 RMK A01 T02790196  RH  060%=      5-min Rain = 0
KTAS 061849Z 14013KT 27/20 A3005 RMK A01 T02730198  RH  064%=      5-min Rain = 0
KTAS 061850Z 13012KT 27/20 A3005 RMK A01 T02660196  RH  066%=      5-min Rain = 0
KTAS 061851Z 14012KT 26/19 A3005 RMK A01 T02610192  RH  066%=      5-min Rain = 0
KTAS 061852Z 14012KT 26/19 A3005 RMK A01 T02560185  RH  065%=      5-min Rain = 0
KTAS 061853Z 14011KT 25/19 A3005 RMK A01 T02530186  RH  067%=      5-min Rain = 0
KTAS 061854Z 14011KT 25/19 A3005 RMK A01 T02530186  RH  066%=      5-min Rain = 0
KTAS 061855Z 14009KT 25/19 A3005 RMK A01 T02520185  RH  066%=      5-min Rain = 0
KTAS 061856Z 14007KT 25/19 A3005 RMK A01 T02530186  RH  067%=      5-min Rain = 0
KTAS 061857Z 13007KT 26/19 A3005 RMK A01 T02550190  RH  067%=      5-min Rain = 0
KTAS 061858Z 14008KT 26/19 A3005 RMK A01 T02580193  RH  067%=      5-min Rain = 0
KTAS 061859Z 15008KT 26/19 A3005 RMK A01 T02590189  RH  066%=      5-min Rain = 0
KTAS 061900Z 15008KT 26/19 A3005 RMK A01 T02590191  RH  066%=      5-min Rain = 0
KTAS 061901Z 14008KT 26/19 A3005 RMK A01 T02630192  RH  065%=      5-min Rain = 0
KTAS 061902Z 14008KT 27/19 A3005 RMK A01 T02660191  RH  064%=      5-min Rain = 0
KTAS 061903Z 14007KT 27/20 A3005 RMK A01 T02700195  RH  064%=      5-min Rain = 0
KTAS 061904Z 14006KT 27/20 A3005 RMK A01 T02740195  RH  062%=      5-min Rain = 0
KTAS 061905Z 14007KT 28/20 A3005 RMK A01 T02780196  RH  061%=      5-min Rain = 0
KTAS 061906Z 14008KT 28/20 A3005 RMK A01 T02830195  RH  059%=      5-min Rain = 0
KTAS 061907Z 13006KT 28/19 A3005 RMK A01 T02820191  RH  058%=      5-min Rain = 0
KTAS 061908Z 15005KT 28/19 A3005 RMK A01 T02790190  RH  058%=      5-min Rain = 0
KTAS 061909Z 13006KT 28/19 A3005 RMK A01 T02770189  RH  059%=      5-min Rain = 0
KTAS 061910Z 15006KT 28/19 A3005 RMK A01 T02750191  RH  060%=      5-min Rain = 0
KTAS 061911Z 15007KT 28/20 A3005 RMK A01 T02770195  RH  061%=      5-min Rain = 0
KTAS 061912Z 16006KT 28/20 A3005 RMK A01 T02800195  RH  060%=      5-min Rain = 0
KTAS 061913Z 17011KT 28/19 A3005 RMK A01 T02830192  RH  058%=      5-min Rain = 0
KTAS 061914Z 17011KT 28/19 A3005 RMK A01 T02830188  RH  057%=      5-min Rain = 0
KTAS 061915Z 17009KT 28/19 A3005 RMK A01 T02800185  RH  057%=      5-min Rain = 0
KTAS 061916Z 18011KT 28/19 A3005 RMK A01 T02780186  RH  057%=      5-min Rain = 0
KTAS 061917Z 16008KT 28/19 A3005 RMK A01 T02760187  RH  058%=      5-min Rain = 0
KTAS 061918Z 16010KT 28/19 A3005 RMK A01 T02760187  RH  058%=      5-min Rain = 0
KTAS 061919Z 15008KT 28/19 A3005 RMK A01 T02750185  RH  058%=      5-min Rain = 0
KTAS 061920Z 15006KT 27/19 A3005 RMK A01 T02740187  RH  059%=      5-min Rain = 0
KTAS 061921Z 15007KT 28/19 A3005 RMK A01 T02760190  RH  059%=      5-min Rain = 0
KTAS 061922Z 14006KT 28/19 A3004 RMK A01 T02810193  RH  059%=      5-min Rain = 0
KTAS 061923Z 15007KT 28/20 A3004 RMK A01 T02830197  RH  060%=      5-min Rain = 0
KTAS 061924Z 15006KT 29/20 A3004 RMK A01 T02870200  RH  059%=      5-min Rain = 0
KTAS 061925Z 16006KT 29/20 A3004 RMK A01 T02890196  RH  057%=      5-min Rain = 0
KTAS 061926Z 15006KT 29/20 A3004 RMK A01 T02890197  RH  057%=      5-min Rain = 0
KTAS 061927Z 16005KT 29/20 A3004 RMK A01 T02910198  RH  057%=      5-min Rain = 0
KTAS 061928Z 14006KT 29/20 A3004 RMK A01 T02930200  RH  057%=      5-min Rain = 0
KTAS 061929Z 14006KT 29/20 A3004 RMK A01 T02920201  RH  058%=      5-min Rain = 0
KTAS 061930Z 13008KT 30/21 A3004 RMK A01 T02950205  RH  058%=      5-min Rain = 0
KTAS 061931Z 14008KT 30/20 A3004 RMK A01 T02950203  RH  058%=      5-min Rain = 0
KTAS 061932Z 15007KT 30/21 A3003 RMK A01 T02950205  RH  058%=      5-min Rain = 0
KTAS 061933Z 13010KT 29/20 A3003 RMK A01 T02940203  RH  058%=      5-min Rain = 0
KTAS 061934Z 16006KT 29/20 A3003 RMK A01 T02890199  RH  058%=      5-min Rain = 0
KTAS 061935Z 14007KT 29/20 A3003 RMK A01 T02850200  RH  060%=      5-min Rain = 0
KTAS 061936Z 15007KT 28/20 A3003 RMK A01 T02830200  RH  061%=      5-min Rain = 0
KTAS 061937Z 16006KT 28/20 A3003 RMK A01 T02820201  RH  061%=      5-min Rain = 0
KTAS 061938Z 16005KT 28/20 A3004 RMK A01 T02820200  RH  061%=      5-min Rain = 0
KTAS 061939Z 14004KT 28/20 A3004 RMK A01 T02800199  RH  061%=      5-min Rain = 0
KTAS 061940Z 14004KT 28/20 A3004 RMK A01 T02790200  RH  062%=      5-min Rain = 0
KTAS 061941Z 13007KT 28/20 A3004 RMK A01 T02800201  RH  062%=      5-min Rain = 0
KTAS 061942Z 14006KT 28/20 A3004 RMK A01 T02800200  RH  062%=      5-min Rain = 0
KTAS 061943Z 14008KT 28/20 A3004 RMK A01 T02800199  RH  061%=      5-min Rain = 0
KTAS 061944Z 13008KT 28/20 A3004 RMK A01 T02800200  RH  061%=      5-min Rain = 0
KTAS 061945Z 14006KT 28/20 A3004 RMK A01 T02830204  RH  062%=      5-min Rain = 0
KTAS 061946Z 15008KT 29/20 A3004 RMK A01 T02870202  RH  060%=      5-min Rain = 0
KTAS 061947Z 15008KT 29/20 A3004 RMK A01 T02870201  RH  060%=      5-min Rain = 0
KTAS 061948Z 15008KT 29/20 A3004 RMK A01 T02850200  RH  060%=      5-min Rain = 0
KTAS 061949Z 14009KT 29/20 A3004 RMK A01 T02850200  RH  060%=      5-min Rain = 0
KTAS 061950Z 15008KT 28/20 A3004 RMK A01 T02840198  RH  060%=      5-min Rain = 0
KTAS 061951Z 14011KT 29/20 A3003 RMK A01 T02850201  RH  060%=      5-min Rain = 0
KTAS 061952Z 13010KT 29/20 A3003 RMK A01 T02890202  RH  059%=      5-min Rain = 0
KTAS 061953Z 12009KT 29/20 A3003 RMK A01 T02900200  RH  058%=      5-min Rain = 0
KTAS 061954Z 11010KT 29/21 A3003 RMK A01 T02940206  RH  059%=      5-min Rain = 0
KTAS 061955Z 09008KT 30/21 A3003 RMK A01 T02960205  RH  058%=      5-min Rain = 0
KTAS 061956Z 13009G14KT 30/20 A3003 RMK A01 T02960203  RH  057%=      5-min Rain = 0
KTAS 061957Z 12007KT 30/20 A3003 RMK A01 T02950202  RH  057%=      5-min Rain = 0
KTAS 061958Z 11008KT 29/20 A3003 RMK A01 T02920203  RH  059%=      5-min Rain = 0
KTAS 061959Z 12008KT 29/20 A3003 RMK A01 T02920204  RH  059%=      5-min Rain = 0
KTAS 062000Z 13008KT 29/21 A3004 RMK A01 T02920206  RH  060%=      5-min Rain = 0
KTAS 062001Z 12007KT 29/21 A3004 RMK A01 T02930206  RH  059%=      5-min Rain = 0
KTAS 062002Z 09009KT 30/21 A3004 RMK A01 T02950211  RH  061%=      5-min Rain = 0
KTAS 062003Z 09010KT 29/21 A3004 RMK A01 T02940211  RH  061%=      5-min Rain = 0
KTAS 062004Z 09011KT 29/21 A3004 RMK A01 T02880207  RH  061%=      5-min Rain = 0
KTAS 062005Z 09012KT 28/21 A3004 RMK A01 T02810207  RH  064%=      5-min Rain = 0
KTAS 062006Z 09006KT 28/21 A3004 RMK A01 T02750206  RH  066%=      5-min Rain = 0
KTAS 062007Z 10007KT 27/21 A3004 RMK A01 T02730207  RH  067%=      5-min Rain = 0
KTAS 062008Z 11007KT 27/21 A3004 RMK A01 T02720205  RH  067%=      5-min Rain = 0
KTAS 062009Z 10007KT 27/21 A3004 RMK A01 T02720208  RH  068%=      5-min Rain = 0
KTAS 062010Z 10008KT 28/21 A3004 RMK A01 T02770210  RH  067%=      5-min Rain = 0
KTAS 062011Z 10008KT 28/21 A3004 RMK A01 T02780209  RH  066%=      5-min Rain = 0
KTAS 062012Z 10009KT 28/21 A3004 RMK A01 T02810210  RH  066%=      5-min Rain = 0
KTAS 062013Z 10007KT 28/21 A3004 RMK A01 T02820209  RH  064%=      5-min Rain = 0
KTAS 062014Z 11008KT 29/20 A3004 RMK A01 T02850200  RH  060%=      5-min Rain = 0
KTAS 062015Z 10007KT 28/20 A3004 RMK A01 T02840197  RH  059%=      5-min Rain = 0
KTAS 062016Z 11007KT 28/20 A3003 RMK A01 T02840199  RH  060%=      5-min Rain = 0
KTAS 062017Z 12004KT 28/20 A3003 RMK A01 T02830197  RH  059%=      5-min Rain = 0
KTAS 062018Z 13006KT 28/20 A3003 RMK A01 T02840199  RH  060%=      5-min Rain = 0
KTAS 062019Z 13006KT 28/20 A3003 RMK A01 T02830198  RH  060%=      5-min Rain = 0
KTAS 062020Z 10007KT 28/20 A3003 RMK A01 T02810195  RH  060%=      5-min Rain = 0
KTAS 062021Z 11005KT 28/20 A3003 RMK A01 T02800197  RH  061%=      5-min Rain = 0
KTAS 062022Z 13006KT 28/20 A3003 RMK A01 T02840201  RH  061%=      5-min Rain = 0
KTAS 062023Z 12003KT 29/20 A3003 RMK A01 T02880204  RH  060%=      5-min Rain = 0
KTAS 062024Z 13006KT 29/20 A3003 RMK A01 T02930199  RH  057%=      5-min Rain = 0
KTAS 062025Z 14006KT 29/19 A3003 RMK A01 T02910194  RH  056%=      5-min Rain = 0
KTAS 062026Z 15005KT 29/20 A3003 RMK A01 T02890195  RH  057%=      5-min Rain = 0
KTAS 062027Z 15006KT 29/20 A3003 RMK A01 T02890197  RH  058%=      5-min Rain = 0
KTAS 062028Z 11008KT 29/20 A3003 RMK A01 T02900197  RH  057%=      5-min Rain = 0
KTAS 062029Z 09006KT 29/20 A3003 RMK A01 T02890196  RH  057%=      5-min Rain = 0
KTAS 062030Z 10004KT 29/19 A3003 RMK A01 T02890193  RH  056%=      5-min Rain = 0
KTAS 062031Z 13006KT 29/20 A3003 RMK A01 T02890197  RH  057%=      5-min Rain = 0
KTAS 062032Z 12005KT 29/20 A3003 RMK A01 T02910198  RH  057%=      5-min Rain = 0
KTAS 062033Z 13005KT 29/20 A3003 RMK A01 T02910195  RH  056%=      5-min Rain = 0
KTAS 062034Z 12004KT 29/20 A3003 RMK A01 T02910195  RH  056%=      5-min Rain = 0
KTAS 062035Z 11006KT 29/20 A3003 RMK A01 T02920198  RH  057%=      5-min Rain = 0
KTAS 062036Z 09005KT 29/20 A3003 RMK A01 T02940199  RH  057%=      5-min Rain = 0
KTAS 062037Z 10007KT 30/20 A3003 RMK A01 T02960199  RH  056%=      5-min Rain = 0
KTAS 062038Z 10007KT 30/20 A3003 RMK A01 T02980199  RH  055%=      5-min Rain = 0
KTAS 062039Z 08007KT 30/20 A3003 RMK A01 T02980197  RH  055%=      5-min Rain = 0
KTAS 062040Z 10010KT 30/20 A3003 RMK A01 T02980198  RH  055%=      5-min Rain = 0
KTAS 062041Z 11008KT 29/20 A3003 RMK A01 T02940196  RH  056%=      5-min Rain = 0
KTAS 062042Z 10010KT 29/20 A3003 RMK A01 T02930202  RH  058%=      5-min Rain = 0
KTAS 062043Z 10009KT 29/20 A3003 RMK A01 T02940202  RH  058%=      5-min Rain = 0
KTAS 062044Z 11006KT 29/20 A3003 RMK A01 T02940201  RH  057%=      5-min Rain = 0
KTAS 062045Z 10003KT 29/20 A3003 RMK A01 T02900200  RH  058%=      5-min Rain = 0
KTAS 062046Z 12006KT 29/20 A3003 RMK A01 T02910201  RH  058%=      5-min Rain = 0
KTAS 062047Z 11006KT 29/20 A3003 RMK A01 T02930202  RH  058%=      5-min Rain = 0
KTAS 062048Z 11007KT 29/20 A3003 RMK A01 T02940200  RH  057%=      5-min Rain = 0
KTAS 062049Z 10008KT 30/20 A3003 RMK A01 T02960202  RH  057%=      5-min Rain = 0
KTAS 062050Z 09007KT 29/20 A3003 RMK A01 T02940198  RH  056%=      5-min Rain = 0
KTAS 062051Z 13009KT 29/20 A3003 RMK A01 T02940199  RH  057%=      5-min Rain = 0
KTAS 062052Z 12008KT 29/20 A3003 RMK A01 T02940199  RH  057%=      5-min Rain = 0
KTAS 062053Z 09008KT 30/20 A3003 RMK A01 T02960200  RH  056%=      5-min Rain = 0
KTAS 062054Z 12007KT 30/20 A3003 RMK A01 T03000203  RH  056%=      5-min Rain = 0
KTAS 062055Z 12008KT 30/20 A3003 RMK A01 T03000201  RH  055%=      5-min Rain = 0
KTAS 062056Z 10008KT 30/20 A3003 RMK A01 T02970202  RH  057%=      5-min Rain = 0
KTAS 062057Z 08008KT 30/20 A3003 RMK A01 T02980198  RH  055%=      5-min Rain = 0
KTAS 062058Z 07008KT 30/20 A3003 RMK A01 T02990199  RH  055%=      5-min Rain = 0
KTAS 062059Z 08007KT 30/20 A3003 RMK A01 T02980198  RH  055%=      5-min Rain = 0
KTAS 062100Z 11009KT 30/20 A3003 RMK A01 T03000198  RH  054%=      5-min Rain = 0
KTAS 062101Z 11006KT 30/20 A3003 RMK A01 T03000199  RH  055%=      5-min Rain = 0
KTAS 062102Z 11008KT 30/20 A3003 RMK A01 T02990199  RH  055%=      5-min Rain = 0
KTAS 062103Z 11009KT 30/20 A3003 RMK A01 T02980199  RH  055%=      5-min Rain = 0
KTAS 062104Z 11008KT 30/20 A3002 RMK A01 T02990195  RH  054%=      5-min Rain = 0
KTAS 062105Z 11010KT 30/20 A3002 RMK A01 T03000196  RH  054%=      5-min Rain = 0
KTAS 062106Z 11006KT 30/20 A3002 RMK A01 T02990195  RH  054%=      5-min Rain = 0
KTAS 062107Z 13007KT 30/19 A3002 RMK A01 T02990193  RH  053%=      5-min Rain = 0
KTAS 062108Z 13006KT 30/19 A3002 RMK A01 T02970188  RH  052%=      5-min Rain = 0
KTAS 062109Z 13008KT 30/19 A3002 RMK A01 T02970192  RH  054%=      5-min Rain = 0
KTAS 062110Z 12006KT 30/20 A3002 RMK A01 T02990195  RH  054%=      5-min Rain = 0
KTAS 062111Z 10007KT 30/20 A3002 RMK A01 T03030197  RH  053%=      5-min Rain = 0
KTAS 062112Z 08008KT 30/19 A3002 RMK A01 T03020186  RH  050%=      5-min Rain = 0
KTAS 062113Z 06006KT 30/18 A3002 RMK A01 T02980184  RH  050%=      5-min Rain = 0
KTAS 062114Z 08006KT 30/19 A3002 RMK A01 T02990188  RH  051%=      5-min Rain = 0
KTAS 062115Z 13010KT 31/19 A3002 RMK A01 T03050189  RH  050%=      5-min Rain = 0
KTAS 062116Z 14008KT 31/18 A3002 RMK A01 T03050184  RH  049%=      5-min Rain = 0
KTAS 062117Z 14007KT 30/18 A3002 RMK A01 T03030183  RH  048%=      5-min Rain = 0
KTAS 062118Z 12008KT 30/18 A3002 RMK A01 T03000182  RH  049%=      5-min Rain = 0
KTAS 062119Z 13008KT 30/18 A3002 RMK A01 T02980183  RH  050%=      5-min Rain = 0
KTAS 062120Z 12007KT 30/19 A3002 RMK A01 T03000186  RH  051%=      5-min Rain = 0
KTAS 062121Z 11009KT 30/19 A3002 RMK A01 T03030185  RH  049%=      5-min Rain = 0
KTAS 062122Z 11008KT 30/18 A3001 RMK A01 T03010183  RH  049%=      5-min Rain = 0
KTAS 062123Z 13006KT 30/19 A3001 RMK A01 T03000185  RH  050%=      5-min Rain = 0
KTAS 062124Z 11008KT 30/19 A3001 RMK A01 T03010185  RH  050%=      5-min Rain = 0
KTAS 062125Z 11010KT 30/18 A3001 RMK A01 T02980183  RH  050%=      5-min Rain = 0
KTAS 062126Z 12007KT 30/18 A3001 RMK A01 T02950184  RH  051%=      5-min Rain = 0
KTAS 062127Z 11007KT 30/19 A3001 RMK A01 T02980194  RH  054%=      5-min Rain = 0
KTAS 062128Z 10007KT 30/20 A3001 RMK A01 T03010200  RH  055%=      5-min Rain = 0
KTAS 062129Z 09009KT 31/20 A3001 RMK A01 T03050201  RH  054%=      5-min Rain = 0
KTAS 062130Z 09010KT 31/20 A3001 RMK A01 T03050196  RH  052%=      5-min Rain = 0
KTAS 062131Z 08009KT 30/19 A3001 RMK A01 T03040193  RH  051%=      5-min Rain = 0
KTAS 062132Z 10009KT 30/19 A3001 RMK A01 T03020192  RH  052%=      5-min Rain = 0
KTAS 062133Z 11008KT 30/19 A3001 RMK A01 T03010191  RH  052%=      5-min Rain = 0
KTAS 062134Z 10011KT 30/20 A3001 RMK A01 T03010199  RH  054%=      5-min Rain = 0
KTAS 062135Z 09011KT 30/20 A3001 RMK A01 T02990202  RH  056%=      5-min Rain = 0
KTAS 062136Z 12009KT 30/20 A3001 RMK A01 T02960200  RH  056%=      5-min Rain = 0
KTAS 062137Z 10010KT 30/20 A3001 RMK A01 T02950202  RH  057%=      5-min Rain = 0
KTAS 062138Z 10008KT 30/20 A3002 RMK A01 T02990198  RH  055%=      5-min Rain = 0
KTAS 062139Z 10007KT 30/20 A3002 RMK A01 T03020197  RH  053%=      5-min Rain = 0
KTAS 062140Z 09009KT 30/19 A3002 RMK A01 T03010193  RH  052%=      5-min Rain = 0
KTAS 062141Z 10009KT 30/19 A3002 RMK A01 T02990194  RH  053%=      5-min Rain = 0
KTAS 062142Z 10010KT 30/20 A3002 RMK A01 T02990198  RH  055%=      5-min Rain = 0
KTAS 062143Z 11009KT 30/20 A3002 RMK A01 T03000204  RH  056%=      5-min Rain = 0
KTAS 062144Z 10009KT 30/20 A3002 RMK A01 T03000202  RH  056%=      5-min Rain = 0
KTAS 062145Z 11008KT 30/19 A3002 RMK A01 T02970194  RH  054%=      5-min Rain = 0
KTAS 062146Z 09007KT 30/19 A3002 RMK A01 T02970191  RH  053%=      5-min Rain = 0
KTAS 062147Z 11006KT 30/19 A3002 RMK A01 T02980190  RH  052%=      5-min Rain = 0
KTAS 062148Z 12006KT 30/19 A3002 RMK A01 T02990190  RH  052%=      5-min Rain = 0
KTAS 062149Z 09004KT 30/19 A3002 RMK A01 T03000191  RH  052%=      5-min Rain = 0
KTAS 062150Z 11008KT 30/19 A3002 RMK A01 T03010194  RH  053%=      5-min Rain = 0
KTAS 062151Z 12007KT 30/20 A3002 RMK A01 T03010197  RH  054%=      5-min Rain = 0
KTAS 062152Z 10007KT 30/20 A3002 RMK A01 T03030199  RH  054%=      5-min Rain = 0
KTAS 062153Z 10009KT 30/20 A3002 RMK A01 T03040196  RH  053%=      5-min Rain = 0
KTAS 062154Z 11007KT 30/19 A3002 RMK A01 T03020193  RH  052%=      5-min Rain = 0
KTAS 062155Z 14009KT 30/19 A3002 RMK A01 T02980192  RH  053%=      5-min Rain = 0
KTAS 062156Z 14008KT 29/19 A3002 RMK A01 T02940192  RH  054%=      5-min Rain = 0
KTAS 062157Z 14008KT 29/19 A3002 RMK A01 T02910187  RH  053%=      5-min Rain = 0
KTAS 062158Z 13005KT 29/19 A3002 RMK A01 T02910186  RH  053%=      5-min Rain = 0
KTAS 062159Z 11005KT 29/19 A3002 RMK A01 T02930187  RH  053%=      5-min Rain = 0
KTAS 062200Z 13007KT 30/19 A3002 RMK A01 T02960187  RH  052%=      5-min Rain = 0
KTAS 062201Z 12010KT 30/20 A3002 RMK A01 T02990195  RH  054%=      5-min Rain = 0
KTAS 062202Z 10007KT 30/19 A3002 RMK A01 T02990188  RH  051%=      5-min Rain = 0
KTAS 062203Z 11008KT 30/19 A3002 RMK A01 T03000185  RH  050%=      5-min Rain = 0
KTAS 062204Z 12005KT 30/19 A3002 RMK A01 T03000190  RH  052%=      5-min Rain = 0
KTAS 062205Z 14007KT 30/19 A3002 RMK A01 T03020192  RH  052%=      5-min Rain = 0
KTAS 062206Z 13008KT 30/19 A3002 RMK A01 T03010192  RH  052%=      5-min Rain = 0
KTAS 062207Z 10007KT 30/19 A3002 RMK A01 T03020192  RH  052%=      5-min Rain = 0
KTAS 062208Z 15006KT 30/19 A3002 RMK A01 T03030190  RH  051%=      5-min Rain = 0
KTAS 062209Z 12006KT 30/19 A3002 RMK A01 T03030186  RH  050%=      5-min Rain = 0
KTAS 062210Z 11007KT 30/19 A3002 RMK A01 T03030187  RH  050%=      5-min Rain = 0
KTAS 062211Z 12007KT 30/18 A3002 RMK A01 T03020183  RH  049%=      5-min Rain = 0
KTAS 062212Z 11007KT 30/19 A3002 RMK A01 T03030190  RH  051%=      5-min Rain = 0
KTAS 062213Z 09006KT 31/19 A3002 RMK A01 T03050189  RH  050%=      5-min Rain = 0
KTAS 062214Z 11005KT 30/19 A3002 RMK A01 T03020188  RH  050%=      5-min Rain = 0
KTAS 062215Z 10003KT 30/19 A3002 RMK A01 T03040190  RH  051%=      5-min Rain = 0
KTAS 062216Z 14007KT 30/19 A3002 RMK A01 T03040187  RH  050%=      5-min Rain = 0
KTAS 062217Z 13007KT 30/19 A3002 RMK A01 T03030188  RH  050%=      5-min Rain = 0
KTAS 062218Z 11008KT 30/19 A3002 RMK A01 T03040189  RH  050%=      5-min Rain = 0
KTAS 062219Z 10006KT 30/19 A3002 RMK A01 T03020187  RH  050%=      5-min Rain = 0
KTAS 062220Z 12004KT 30/19 A3002 RMK A01 T03000185  RH  050%=      5-min Rain = 0
KTAS 062221Z 13006KT 30/19 A3002 RMK A01 T03020190  RH  051%=      5-min Rain = 0
KTAS 062222Z 11004KT 30/19 A3002 RMK A01 T03020189  RH  051%=      5-min Rain = 0
KTAS 062223Z 11005KT 30/19 A3002 RMK A01 T03030193  RH  052%=      5-min Rain = 0
KTAS 062224Z 13008KT 31/19 A3002 RMK A01 T03060192  RH  051%=      5-min Rain = 0
KTAS 062225Z 12006KT 31/19 A3002 RMK A01 T03080193  RH  050%=      5-min Rain = 0
KTAS 062226Z 12006KT 31/19 A3002 RMK A01 T03090190  RH  049%=      5-min Rain = 0
KTAS 062227Z 11005KT 31/19 A3002 RMK A01 T03080189  RH  049%=      5-min Rain = 0
KTAS 062228Z 10006KT 31/19 A3001 RMK A01 T03070187  RH  049%=      5-min Rain = 0
KTAS 062229Z 08006KT 31/19 A3001 RMK A01 T03080190  RH  049%=      5-min Rain = 0
KTAS 062230Z 08006KT 31/19 A3001 RMK A01 T03060190  RH  050%=      5-min Rain = 0
KTAS 062231Z 13007KT 31/19 A3001 RMK A01 T03070190  RH  050%=      5-min Rain = 0
KTAS 062232Z 10005KT 31/19 A3001 RMK A01 T03080189  RH  049%=      5-min Rain = 0
KTAS 062233Z 08006KT 31/19 A3001 RMK A01 T03070187  RH  049%=      5-min Rain = 0
KTAS 062234Z 07007KT 31/18 A3001 RMK A01 T03060182  RH  048%=      5-min Rain = 0
KTAS 062235Z 07007KT 31/19 A3001 RMK A01 T03050185  RH  049%=      5-min Rain = 0
KTAS 062236Z 07008KT 31/19 A3001 RMK A01 T03050187  RH  050%=      5-min Rain = 0
KTAS 062237Z 09006KT 31/19 A3001 RMK A01 T03050187  RH  049%=      5-min Rain = 0
KTAS 062238Z 11006KT 31/19 A3001 RMK A01 T03050188  RH  049%=      5-min Rain = 0
KTAS 062239Z 14008KT 31/19 A3001 RMK A01 T03070189  RH  049%=      5-min Rain = 0
KTAS 062240Z 13007KT 31/19 A3001 RMK A01 T03080188  RH  049%=      5-min Rain = 0
KTAS 062241Z 12007KT 31/19 A3001 RMK A01 T03060187  RH  049%=      5-min Rain = 0
KTAS 062242Z 11007KT 31/19 A3001 RMK A01 T03070188  RH  049%=      5-min Rain = 0
KTAS 062243Z 08010KT 31/19 A3001 RMK A01 T03090188  RH  049%=      5-min Rain = 0
KTAS 062244Z 07011KT 31/18 A3001 RMK A01 T03090182  RH  047%=      5-min Rain = 0
KTAS 062245Z 08008KT 31/18 A3001 RMK A01 T03060181  RH  047%=      5-min Rain = 0
KTAS 062246Z 10009KT 31/18 A3001 RMK A01 T03070182  RH  047%=      5-min Rain = 0
KTAS 062247Z 09008KT 31/18 A3001 RMK A01 T03050181  RH  047%=      5-min Rain = 0
KTAS 062248Z 08005KT 31/18 A3001 RMK A01 T03060184  RH  048%=      5-min Rain = 0
KTAS 062249Z 08005KT 31/18 A3001 RMK A01 T03070182  RH  047%=      5-min Rain = 0
KTAS 062250Z 09009KT 31/18 A3001 RMK A01 T03070184  RH  048%=      5-min Rain = 0
KTAS 062251Z 10005KT 31/18 A3001 RMK A01 T03050183  RH  048%=      5-min Rain = 0
KTAS 062252Z 08004KT 31/18 A3001 RMK A01 T03050184  RH  048%=      5-min Rain = 0
KTAS 062253Z 08009KT 31/19 A3001 RMK A01 T03060187  RH  049%=      5-min Rain = 0
KTAS 062254Z 09011KT 31/19 A3001 RMK A01 T03060187  RH  049%=      5-min Rain = 0
KTAS 062255Z 09009KT 31/18 A3001 RMK A01 T03050184  RH  048%=      5-min Rain = 0
KTAS 062256Z 09005KT 30/19 A3001 RMK A01 T03030185  RH  049%=      5-min Rain = 0
KTAS 062257Z 08010KT 30/19 A3001 RMK A01 T03040186  RH  049%=      5-min Rain = 0
KTAS 062258Z 08011KT 30/18 A3001 RMK A01 T03030183  RH  049%=      5-min Rain = 0
KTAS 062259Z 08008KT 30/18 A3001 RMK A01 T03020182  RH  049%=      5-min Rain = 0
KTAS 062300Z 06009KT 30/19 A3001 RMK A01 T03040186  RH  049%=      5-min Rain = 0
KTAS 062301Z 06008KT 30/19 A3001 RMK A01 T03040185  RH  049%=      5-min Rain = 0
KTAS 062302Z 10008KT 30/18 A3001 RMK A01 T03030184  RH  049%=      5-min Rain = 0
KTAS 062303Z 07008KT 30/18 A3001 RMK A01 T03030184  RH  049%=      5-min Rain = 0
KTAS 062304Z 07011KT 30/19 A30 RMK A01 T03030186  RH  050%=      5-min Rain = 0
KTAS 062305Z 10012KT 30/19 A30 RMK A01 T03030187  RH  050%=      5-min Rain = 0
KTAS 062306Z 10011KT 30/19 A30 RMK A01 T03030188  RH  050%=      5-min Rain = 0
KTAS 062307Z 10008KT 30/19 A30 RMK A01 T03020186  RH  050%=      5-min Rain = 0
KTAS 062308Z 11006KT 30/19 A30 RMK A01 T03030188  RH  050%=      5-min Rain = 0
KTAS 062309Z 06005KT 30/19 A30 RMK A01 T03030185  RH  049%=      5-min Rain = 0
KTAS 062310Z 07005KT 30/19 A30 RMK A01 T03010186  RH  050%=      5-min Rain = 0
KTAS 062311Z 10008KT 30/19 A30 RMK A01 T03020187  RH  050%=      5-min Rain = 0
KTAS 062312Z 12009KT 30/19 A30 RMK A01 T03010185  RH  050%=      5-min Rain = 0
KTAS 062313Z 13006KT 30/18 A30 RMK A01 T03010184  RH  050%=      5-min Rain = 0
KTAS 062314Z 12008KT 30/19 A30 RMK A01 T03020186  RH  050%=      5-min Rain = 0
KTAS 062315Z 11006KT 30/19 A30 RMK A01 T03040188  RH  050%=      5-min Rain = 0
KTAS 062316Z 09005KT 31/19 A30 RMK A01 T03050189  RH  050%=      5-min Rain = 0
KTAS 062317Z 10005KT 31/19 A30 RMK A01 T03060189  RH  050%=      5-min Rain = 0
KTAS 062318Z 13006KT 31/19 A30 RMK A01 T03080189  RH  049%=      5-min Rain = 0
KTAS 062319Z 13008KT 31/19 A30 RMK A01 T03090187  RH  048%=      5-min Rain = 0
KTAS 062320Z 10009KT 31/19 A30 RMK A01 T03070187  RH  049%=      5-min Rain = 0
KTAS 062321Z 07008KT 31/19 A30 RMK A01 T03060186  RH  049%=      5-min Rain = 0
KTAS 062322Z 09009KT 31/19 A30 RMK A01 T03050188  RH  050%=      5-min Rain = 0
KTAS 062323Z 10009KT 31/19 A30 RMK A01 T03050186  RH  049%=      5-min Rain = 0
KTAS 062324Z 11008KT 30/19 A30 RMK A01 T03030185  RH  049%=      5-min Rain = 0
KTAS 062325Z 11007KT 30/19 A30 RMK A01 T03020185  RH  049%=      5-min Rain = 0
KTAS 062326Z 11005KT 30/18 A30 RMK A01 T03010184  RH  049%=      5-min Rain = 0
KTAS 062327Z 09004KT 30/18 A30 RMK A01 T03020184  RH  049%=      5-min Rain = 0
KTAS 062328Z 09006KT 30/18 A30 RMK A01 T03010182  RH  049%=      5-min Rain = 0
KTAS 062329Z 11006KT 30/18 A30 RMK A01 T03000182  RH  049%=      5-min Rain = 0
KTAS 062330Z 10007KT 30/18 A30 RMK A01 T03000182  RH  049%=      5-min Rain = 0
KTAS 062331Z 11009KT 30/18 A30 RMK A01 T03010181  RH  049%=      5-min Rain = 0
KTAS 062332Z 12006KT 30/18 A30 RMK A01 T03010178  RH  048%=      5-min Rain = 0
KTAS 062333Z 10007KT 30/18 A30 RMK A01 T03000178  RH  048%=      5-min Rain = 0
KTAS 062334Z 11007KT 30/18 A30 RMK A01 T03000177  RH  048%=      5-min Rain = 0
KTAS 062335Z 10008KT 30/18 A30 RMK A01 T02990177  RH  048%=      5-min Rain = 0
KTAS 062336Z 09007KT 30/18 A30 RMK A01 T03000181  RH  049%=      5-min Rain = 0
KTAS 062337Z 10006KT 30/18 A30 RMK A01 T03000178  RH  048%=      5-min Rain = 0
KTAS 062338Z 10005KT 30/18 A30 RMK A01 T03000175  RH  047%=      5-min Rain = 0
KTAS 062339Z 09004KT 30/18 A30 RMK A01 T02990175  RH  048%=      5-min Rain = 0
KTAS 062340Z 10004KT 30/18 A30 RMK A01 T03000180  RH  049%=      5-min Rain = 0
KTAS 062341Z 08006KT 30/18 A30 RMK A01 T03020184  RH  049%=      5-min Rain = 0
KTAS 062342Z 07007KT 30/18 A30 RMK A01 T03030183  RH  049%=      5-min Rain = 0
KTAS 062343Z 11008KT 30/19 A30 RMK A01 T03030185  RH  049%=      5-min Rain = 0
KTAS 062344Z 11005KT 30/19 A30 RMK A01 T03020185  RH  049%=      5-min Rain = 0
KTAS 062345Z 09006KT 30/18 A30 RMK A01 T03010183  RH  049%=      5-min Rain = 0
KTAS 062346Z 07009KT 30/18 A30 RMK A01 T03000182  RH  049%=      5-min Rain = 0
KTAS 062347Z 07010KT 30/18 A30 RMK A01 T02990182  RH  050%=      5-min Rain = 0
KTAS 062348Z 10007KT 30/18 A30 RMK A01 T03000184  RH  050%=      5-min Rain = 0
KTAS 062349Z 10009KT 30/18 A30 RMK A01 T03010183  RH  049%=      5-min Rain = 0
KTAS 062350Z 09007KT 30/18 A30 RMK A01 T02990181  RH  049%=      5-min Rain = 0
KTAS 062351Z 11009KT 30/18 A30 RMK A01 T02980181  RH  049%=      5-min Rain = 0
KTAS 062352Z 11006KT 30/18 A30 RMK A01 T02970182  RH  050%=      5-min Rain = 0
KTAS 062353Z 10005KT 30/18 A30 RMK A01 T02970182  RH  050%=      5-min Rain = 0
KTAS 062354Z 10007G12KT 30/18 A30 RMK A01 T02970180  RH  050%=      5-min Rain = 0
KTAS 062355Z 10009KT 30/18 A30 RMK A01 T02960181  RH  050%=      5-min Rain = 0
KTAS 062356Z 10006KT 30/18 A30 RMK A01 T02950181  RH  050%=      5-min Rain = 0
KTAS 062357Z 10008KT 30/18 A30 RMK A01 T02950183  RH  051%=      5-min Rain = 0
KTAS 062358Z 10007KT 30/18 A30 RMK A01 T02960181  RH  050%=      5-min Rain = 0
KTAS 062359Z 09006KT 30/18 A30 RMK A01 T02950181  RH  050%=      5-min Rain = 0
KTAS 070000Z 09004KT 30/18 A2999 RMK A01 T02960181  RH  050%=      5-min Rain = 0
KTAS 070001Z 13005KT 30/18 A2999 RMK A01 T02960182  RH  050%=      5-min Rain = 0
KTAS 070002Z 14005KT 30/18 A2999 RMK A01 T02960181  RH  050%=      5-min Rain = 0
KTAS 070003Z 10006KT 30/18 A2999 RMK A01 T02980184  RH  050%=      5-min Rain = 0
KTAS 070004Z 09007KT 30/18 A2999 RMK A01 T02980183  RH  050%=      5-min Rain = 0
KTAS 070005Z 09007KT 30/18 A2999 RMK A01 T02980183  RH  050%=      5-min Rain = 0
KTAS 070006Z 12008KT 30/18 A2999 RMK A01 T02980183  RH  050%=      5-min Rain = 0
KTAS 070007Z 11007KT 30/18 A2999 RMK A01 T02980182  RH  050%=      5-min Rain = 0
KTAS 070008Z 11005KT 30/18 A2999 RMK A01 T02970182  RH  050%=      5-min Rain = 0
KTAS 070009Z 12006KT 30/18 A2999 RMK A01 T02970181  RH  050%=      5-min Rain = 0
KTAS 070010Z 11008KT 30/18 A2999 RMK A01 T02970182  RH  050%=      5-min Rain = 0
KTAS 070011Z 11006KT 30/18 A2999 RMK A01 T02970181  RH  050%=      5-min Rain = 0
KTAS 070012Z 11006KT 30/18 A2999 RMK A01 T02960180  RH  050%=      5-min Rain = 0
KTAS 070013Z 12007KT 30/18 A2999 RMK A01 T02960182  RH  050%=      5-min Rain = 0
KTAS 070014Z 14007KT 30/18 A2999 RMK A01 T02960181  RH  050%=      5-min Rain = 0
KTAS 070015Z 13008KT 30/18 A2999 RMK A01 T02950180  RH  050%=      5-min Rain = 0
KTAS 070016Z 13007KT 29/18 A2999 RMK A01 T02940180  RH  050%=      5-min Rain = 0
KTAS 070017Z 14009KT 29/18 A2999 RMK A01 T02930181  RH  051%=      5-min Rain = 0
KTAS 070018Z 13009KT 29/18 A2999 RMK A01 T02940182  RH  051%=      5-min Rain = 0
KTAS 070019Z 13008KT 29/18 A2999 RMK A01 T02940182  RH  051%=      5-min Rain = 0
KTAS 070020Z 12006KT 30/18 A2999 RMK A01 T02950183  RH  051%=      5-min Rain = 0
KTAS 070021Z 11007KT 30/18 A2999 RMK A01 T02950184  RH  051%=      5-min Rain = 0
KTAS 070022Z 11006KT 30/18 A2999 RMK A01 T02950183  RH  051%=      5-min Rain = 0
KTAS 070023Z 09009KT 30/18 A2999 RMK A01 T02950183  RH  051%=      5-min Rain = 0
KTAS 070024Z 10008KT 29/18 A2999 RMK A01 T02920178  RH  050%=      5-min Rain = 0
KTAS 070025Z 10006KT 29/18 A2999 RMK A01 T02910180  RH  051%=      5-min Rain = 0
KTAS 070026Z 09006KT 29/18 A2999 RMK A01 T02920181  RH  051%=      5-min Rain = 0
KTAS 070027Z 11005KT 29/18 A2999 RMK A01 T02930183  RH  051%=      5-min Rain = 0
KTAS 070028Z 11004KT 29/18 A2999 RMK A01 T02940182  RH  051%=      5-min Rain = 0
KTAS 070029Z 12004KT 30/18 A2999 RMK A01 T02950184  RH  051%=      5-min Rain = 0
KTAS 070030Z 12005KT 30/18 A2999 RMK A01 T02950181  RH  050%=      5-min Rain = 0
KTAS 070031Z 10005KT 30/18 A2999 RMK A01 T02960183  RH  051%=      5-min Rain = 0
KTAS 070032Z 12006KT 30/18 A2999 RMK A01 T02950181  RH  050%=      5-min Rain = 0
KTAS 070033Z 12006KT 29/18 A2999 RMK A01 T02940180  RH  050%=      5-min Rain = 0
KTAS 070034Z 11006KT 29/18 A2999 RMK A01 T02930179  RH  050%=      5-min Rain = 0
KTAS 070035Z 10006KT 29/18 A2999 RMK A01 T02920178  RH  050%=      5-min Rain = 0
KTAS 070036Z 11006KT 29/18 A2999 RMK A01 T02910180  RH  051%=      5-min Rain = 0
KTAS 070037Z 11005KT 29/18 A2999 RMK A01 T02910178  RH  050%=      5-min Rain = 0
KTAS 070038Z 12005KT 29/18 A2999 RMK A01 T02900178  RH  051%=      5-min Rain = 0
KTAS 070039Z 10006KT 29/18 A2999 RMK A01 T02910180  RH  051%=      5-min Rain = 0
KTAS 070040Z 09005KT 29/18 A2999 RMK A01 T02900179  RH  051%=      5-min Rain = 0
KTAS 070041Z 09006KT 29/18 A2999 RMK A01 T02900180  RH  052%=      5-min Rain = 0
KTAS 070042Z 10006KT 29/18 A2999 RMK A01 T02910182  RH  052%=      5-min Rain = 0
KTAS 070043Z 11008KT 29/18 A2999 RMK A01 T02910180  RH  051%=      5-min Rain = 0
KTAS 070044Z 12007KT 29/18 A2999 RMK A01 T02910177  RH  050%=      5-min Rain = 0
KTAS 070045Z 10007KT 29/18 A2999 RMK A01 T02900178  RH  051%=      5-min Rain = 0
KTAS 070046Z 09007KT 29/18 A2999 RMK A01 T02900181  RH  052%=      5-min Rain = 0
KTAS 070047Z 10007KT 29/18 A2999 RMK A01 T02910181  RH  052%=      5-min Rain = 0
KTAS 070048Z 10006KT 29/18 A2999 RMK A01 T02910181  RH  052%=      5-min Rain = 0
KTAS 070049Z 10008KT 29/18 A2999 RMK A01 T02900180  RH  051%=      5-min Rain = 0
KTAS 070050Z 10007KT 29/18 A2999 RMK A01 T02890178  RH  051%=      5-min Rain = 0
KTAS 070051Z 08006KT 29/18 A30 RMK A01 T02890179  RH  051%=      5-min Rain = 0
KTAS 070052Z 09005KT 29/18 A30 RMK A01 T02890180  RH  052%=      5-min Rain = 0
KTAS 070053Z 09005KT 29/18 A30 RMK A01 T02890182  RH  052%=      5-min Rain = 0
KTAS 070054Z 08006KT 29/18 A30 RMK A01 T02890180  RH  052%=      5-min Rain = 0
KTAS 070055Z 08006KT 29/18 A30 RMK A01 T02880181  RH  052%=      5-min Rain = 0
KTAS 070056Z 09006KT 29/18 A30 RMK A01 T02880180  RH  052%=      5-min Rain = 0
KTAS 070057Z 10006KT 29/18 A30 RMK A01 T02880181  RH  052%=      5-min Rain = 0
KTAS 070058Z 10006KT 29/18 A30 RMK A01 T02880180  RH  052%=      5-min Rain = 0
KTAS 070059Z 12005KT 29/18 A30 RMK A01 T02870181  RH  053%=      5-min Rain = 0
KTAS 070100Z 10007KT 29/18 A30 RMK A01 T02870182  RH  053%=      5-min Rain = 0
KTAS 070101Z 10006KT 29/18 A30 RMK A01 T02870181  RH  053%=      5-min Rain = 0
KTAS 070102Z 12006KT 29/18 A30 RMK A01 T02870182  RH  053%=      5-min Rain = 0
KTAS 070103Z 11006KT 29/18 A30 RMK A01 T02870182  RH  053%=      5-min Rain = 0
KTAS 070104Z 10007KT 29/18 A30 RMK A01 T02860184  RH  054%=      5-min Rain = 0
KTAS 070105Z 09008KT 29/18 A30 RMK A01 T02860183  RH  054%=      5-min Rain = 0
KTAS 070106Z 09006KT 29/18 A30 RMK A01 T02860182  RH  053%=      5-min Rain = 0
KTAS 070107Z 10008KT 29/18 A30 RMK A01 T02850181  RH  053%=      5-min Rain = 0
KTAS 070108Z 10006KT 29/18 A30 RMK A01 T02850180  RH  053%=      5-min Rain = 0
KTAS 070109Z 10005KT 29/18 A30 RMK A01 T02850182  RH  054%=      5-min Rain = 0
KTAS 070110Z 10006KT 29/18 A30 RMK A01 T02850183  RH  054%=      5-min Rain = 0
KTAS 070111Z 11006KT 28/18 A30 RMK A01 T02840181  RH  054%=      5-min Rain = 0
KTAS 070112Z 09006KT 28/18 A30 RMK A01 T02840181  RH  053%=      5-min Rain = 0
KTAS 070113Z 08006KT 28/18 A30 RMK A01 T02840183  RH  054%=      5-min Rain = 0
KTAS 070114Z 09007KT 28/18 A30 RMK A01 T02830182  RH  054%=      5-min Rain = 0
KTAS 070115Z 10006KT 28/18 A30 RMK A01 T02830182  RH  054%=      5-min Rain = 0
KTAS 070116Z 09006KT 28/18 A30 RMK A01 T02830183  RH  055%=      5-min Rain = 0
KTAS 070117Z 09006KT 28/18 A30 RMK A01 T02820182  RH  054%=      5-min Rain = 0
KTAS 070118Z 09007KT 28/18 A30 RMK A01 T02820182  RH  055%=      5-min Rain = 0
KTAS 070119Z 09007KT 28/18 A30 RMK A01 T02820182  RH  055%=      5-min Rain = 0
KTAS 070120Z 10007KT 28/18 A30 RMK A01 T02810182  RH  055%=      5-min Rain = 0
KTAS 070121Z 10006KT 28/18 A30 RMK A01 T02810182  RH  055%=      5-min Rain = 0
KTAS 070122Z 10006KT 28/18 A30 RMK A01 T02800182  RH  055%=      5-min Rain = 0
KTAS 070123Z 10007KT 28/18 A30 RMK A01 T02800182  RH  056%=      5-min Rain = 0
KTAS 070124Z 10006KT 28/18 A30 RMK A01 T02790183  RH  056%=      5-min Rain = 0
KTAS 070125Z 09004KT 28/18 A30 RMK A01 T02790184  RH  056%=      5-min Rain = 0
KTAS 070126Z 09004KT 28/19 A30 RMK A01 T02790185  RH  057%=      5-min Rain = 0
KTAS 070127Z 09006KT 28/19 A30 RMK A01 T02780185  RH  057%=      5-min Rain = 0
KTAS 070128Z 09006KT 28/18 A30 RMK A01 T02780183  RH  056%=      5-min Rain = 0
KTAS 070129Z 10006KT 28/18 A30 RMK A01 T02770182  RH  056%=      5-min Rain = 0
KTAS 070130Z 10005KT 28/18 A30 RMK A01 T02770183  RH  057%=      5-min Rain = 0
KTAS 070131Z 10006KT 28/18 A30 RMK A01 T02760184  RH  057%=      5-min Rain = 0
KTAS 070132Z 10005KT 28/19 A3001 RMK A01 T02760185  RH  058%=      5-min Rain = 0
KTAS 070133Z 09005KT 28/19 A3001 RMK A01 T02760186  RH  058%=      5-min Rain = 0
KTAS 070134Z 10005KT 28/19 A3001 RMK A01 T02750186  RH  058%=      5-min Rain = 0
KTAS 070135Z 10006KT 27/19 A3001 RMK A01 T02740186  RH  059%=      5-min Rain = 0
KTAS 070136Z 10005KT 27/19 A3001 RMK A01 T02740185  RH  058%=      5-min Rain = 0
KTAS 070137Z 10005KT 27/19 A3001 RMK A01 T02730186  RH  059%=      5-min Rain = 0
KTAS 070138Z 10005KT 27/19 A3001 RMK A01 T02730186  RH  059%=      5-min Rain = 0
KTAS 070139Z 10005KT 27/19 A3001 RMK A01 T02720186  RH  059%=      5-min Rain = 0
KTAS 070140Z 11005KT 27/19 A3001 RMK A01 T02710185  RH  059%=      5-min Rain = 0
KTAS 070141Z 11004KT 27/19 A3001 RMK A01 T02710185  RH  060%=      5-min Rain = 0
KTAS 070142Z 10004KT 27/19 A3001 RMK A01 T02700185  RH  060%=      5-min Rain = 0
KTAS 070143Z 11006KT 27/19 A3001 RMK A01 T02690186  RH  060%=      5-min Rain = 0
KTAS 070144Z 12005KT 27/18 A3001 RMK A01 T02690182  RH  059%=      5-min Rain = 0
KTAS 070145Z 10005KT 27/18 A3001 RMK A01 T02710181  RH  058%=      5-min Rain = 0
KTAS 070146Z 11004KT 27/18 A3001 RMK A01 T02710183  RH  058%=      5-min Rain = 0
KTAS 070147Z 11004KT 27/18 A3001 RMK A01 T02700184  RH  059%=      5-min Rain = 0
KTAS 070148Z 10005KT 27/19 A3001 RMK A01 T02700185  RH  060%=      5-min Rain = 0
KTAS 070149Z 11004KT 27/19 A3001 RMK A01 T02690185  RH  060%=      5-min Rain = 0
KTAS 070150Z 11004KT 27/18 A3001 RMK A01 T02670184  RH  060%=      5-min Rain = 0
KTAS 070151Z 11004KT 27/18 A3001 RMK A01 T02670183  RH  060%=      5-min Rain = 0
KTAS 070152Z 11003KT 27/18 A3001 RMK A01 T02670184  RH  060%=      5-min Rain = 0
KTAS 070153Z 12003KT 27/19 A3001 RMK A01 T02670185  RH  061%=      5-min Rain = 0
KTAS 070154Z 12004KT 27/19 A3001 RMK A01 T02660185  RH  061%=      5-min Rain = 0
KTAS 070155Z 11004KT 27/19 A3001 RMK A01 T02650185  RH  061%=      5-min Rain = 0
KTAS 070156Z 10004KT 26/19 A3001 RMK A01 T02640186  RH  062%=      5-min Rain = 0
KTAS 070157Z 11004KT 26/19 A3001 RMK A01 T02630186  RH  062%=      5-min Rain = 0
KTAS 070158Z 10004KT 26/19 A3001 RMK A01 T02620185  RH  063%=      5-min Rain = 0
KTAS 070159Z 11005KT 26/18 A3001 RMK A01 T02620184  RH  062%=      5-min Rain = 0
KTAS 070200Z 11004KT 26/19 A3001 RMK A01 T02620185  RH  063%=      5-min Rain = 0
KTAS 070201Z 11005KT 26/19 A3001 RMK A01 T02610186  RH  063%=      5-min Rain = 0
KTAS 070202Z 11004KT 26/19 A3001 RMK A01 T02610186  RH  063%=      5-min Rain = 0
KTAS 070203Z 11004KT 26/19 A3001 RMK A01 T02610186  RH  064%=      5-min Rain = 0
KTAS 070204Z 11004KT 26/19 A3001 RMK A01 T02600186  RH  064%=      5-min Rain = 0
KTAS 070205Z 11004KT 26/19 A3001 RMK A01 T02590187  RH  064%=      5-min Rain = 0
KTAS 070206Z 10004KT 26/19 A3001 RMK A01 T02580187  RH  065%=      5-min Rain = 0
KTAS 070207Z 10005KT 26/19 A3001 RMK A01 T02580188  RH  065%=      5-min Rain = 0
KTAS 070208Z 10005KT 26/19 A3001 RMK A01 T02570188  RH  066%=      5-min Rain = 0
KTAS 070209Z 11004KT 26/19 A3001 RMK A01 T02570189  RH  066%=      5-min Rain = 0
KTAS 070210Z 11003KT 26/19 A3001 RMK A01 T02560189  RH  067%=      5-min Rain = 0
KTAS 070211Z 12004KT 26/19 A3001 RMK A01 T02550189  RH  067%=      5-min Rain = 0
KTAS 070212Z 12004KT 26/19 A3001 RMK A01 T02550190  RH  067%=      5-min Rain = 0
KTAS 070213Z 11004KT 26/19 A3001 RMK A01 T02550189  RH  067%=      5-min Rain = 0
KTAS 070214Z 11004KT 26/19 A3001 RMK A01 T02550189  RH  067%=      5-min Rain = 0
KTAS 070215Z 11004KT 25/19 A3001 RMK A01 T02540190  RH  067%=      5-min Rain = 0
KTAS 070216Z 11003KT 25/19 A3001 RMK A01 T02540190  RH  068%=      5-min Rain = 0
KTAS 070217Z 11004KT 25/19 A3001 RMK A01 T02530191  RH  068%=      5-min Rain = 0
KTAS 070218Z 11004KT 25/19 A3002 RMK A01 T02530191  RH  069%=      5-min Rain = 0
KTAS 070219Z 11003KT 25/19 A3002 RMK A01 T02530192  RH  069%=      5-min Rain = 0
KTAS 070220Z 10003KT 25/19 A3002 RMK A01 T02520191  RH  069%=      5-min Rain = 0
KTAS 070221Z 10004KT 25/19 A3002 RMK A01 T02530192  RH  069%=      5-min Rain = 0
KTAS 070222Z 11004KT 25/19 A3002 RMK A01 T02520193  RH  069%=      5-min Rain = 0
KTAS 070223Z 11004KT 25/19 A3002 RMK A01 T02520193  RH  070%=      5-min Rain = 0
KTAS 070224Z 11003KT 25/19 A3002 RMK A01 T02520193  RH  070%=      5-min Rain = 0
KTAS 070225Z 11003KT 25/19 A3002 RMK A01 T02520193  RH  070%=      5-min Rain = 0
KTAS 070226Z 11004KT 25/19 A3002 RMK A01 T02510192  RH  070%=      5-min Rain = 0
KTAS 070227Z 11003KT 25/19 A3002 RMK A01 T02510193  RH  070%=      5-min Rain = 0
KTAS 070228Z 11004KT 25/19 A3002 RMK A01 T02510193  RH  070%=      5-min Rain = 0
KTAS 070229Z 11004KT 25/19 A3002 RMK A01 T02510192  RH  070%=      5-min Rain = 0
KTAS 070230Z 11003KT 25/19 A3002 RMK A01 T02510192  RH  069%=      5-min Rain = 0
KTAS 070231Z 11003KT 25/19 A3002 RMK A01 T02510192  RH  069%=      5-min Rain = 0
KTAS 070232Z 11003KT 25/19 A3002 RMK A01 T02510191  RH  069%=      5-min Rain = 0
KTAS 070233Z 12004KT 25/19 A3002 RMK A01 T02510192  RH  069%=      5-min Rain = 0
KTAS 070234Z 12003KT 25/19 A3002 RMK A01 T02510192  RH  069%=      5-min Rain = 0
KTAS 070235Z 11004KT 25/19 A3002 RMK A01 T02510192  RH  070%=      5-min Rain = 0
KTAS 070236Z 11003KT 25/19 A3002 RMK A01 T02510192  RH  069%=      5-min Rain = 0
KTAS 070237Z 11003KT 25/19 A3002 RMK A01 T02510192  RH  070%=      5-min Rain = 0
KTAS 070238Z 11004KT 25/19 A3002 RMK A01 T02510192  RH  070%=      5-min Rain = 0
KTAS 070239Z 11003KT 25/19 A3002 RMK A01 T02510192  RH  070%=      5-min Rain = 0
KTAS 070240Z 11003KT 25/19 A3002 RMK A01 T02510192  RH  070%=      5-min Rain = 0
KTAS 070241Z 10004KT 25/19 A3002 RMK A01 T02510193  RH  070%=      5-min Rain = 0
KTAS 070242Z 11004KT 25/19 A3002 RMK A01 T02500193  RH  071%=      5-min Rain = 0
KTAS 070243Z 10004KT 25/19 A3002 RMK A01 T02490193  RH  071%=      5-min Rain = 0
KTAS 070244Z 10004KT 25/19 A3002 RMK A01 T02490193  RH  071%=      5-min Rain = 0
KTAS 070245Z 10003KT 25/19 A3002 RMK A01 T02490193  RH  071%=      5-min Rain = 0
KTAS 070246Z 12003KT 25/19 A3002 RMK A01 T02480193  RH  071%=      5-min Rain = 0
KTAS 070247Z 13003KT 25/19 A3002 RMK A01 T02480193  RH  071%=      5-min Rain = 0
KTAS 070248Z 12003KT 25/19 A3002 RMK A01 T02480193  RH  071%=      5-min Rain = 0
KTAS 070249Z 12003KT 25/19 A3002 RMK A01 T02480193  RH  071%=      5-min Rain = 0
KTAS 070250Z 12002KT 25/19 A3002 RMK A01 T02490192  RH  071%=      5-min Rain = 0
KTAS 070251Z 11002KT 25/19 A3002 RMK A01 T02490193  RH  071%=      5-min Rain = 0
KTAS 070252Z 10002KT 25/19 A3002 RMK A01 T02490192  RH  071%=      5-min Rain = 0
KTAS 070253Z 10002KT 25/19 A3002 RMK A01 T02480192  RH  071%=      5-min Rain = 0
KTAS 070254Z 10002KT 25/19 A3002 RMK A01 T02480192  RH  071%=      5-min Rain = 0
KTAS 070255Z 11002KT 25/19 A3002 RMK A01 T02470192  RH  071%=      5-min Rain = 0
KTAS 070256Z 10002KT 25/19 A3002 RMK A01 T02470193  RH  072%=      5-min Rain = 0
KTAS 070257Z 10003KT 25/19 A3002 RMK A01 T02470193  RH  072%=      5-min Rain = 0
KTAS 070258Z 10003KT 25/19 A3003 RMK A01 T02470192  RH  072%=      5-min Rain = 0
KTAS 070259Z 11003KT 25/19 A3003 RMK A01 T02470193  RH  072%=      5-min Rain = 0
KTAS 070300Z 10003KT 25/19 A3003 RMK A01 T02460192  RH  072%=      5-min Rain = 0
KTAS 070301Z 10003KT 25/19 A3003 RMK A01 T02460192  RH  072%=      5-min Rain = 0
KTAS 070302Z 10003KT 25/19 A3003 RMK A01 T02470192  RH  071%=      5-min Rain = 0
KTAS 070303Z 10003KT 25/19 A3003 RMK A01 T02470192  RH  071%=      5-min Rain = 0
KTAS 070304Z 10003KT 25/19 A3003 RMK A01 T02470192  RH  071%=      5-min Rain = 0
KTAS 070305Z 10003KT 25/19 A3003 RMK A01 T02470193  RH  072%=      5-min Rain = 0
KTAS 070306Z 10003KT 25/19 A3003 RMK A01 T02470193  RH  072%=      5-min Rain = 0
KTAS 070307Z 11003KT 25/19 A3003 RMK A01 T02470192  RH  072%=      5-min Rain = 0
KTAS 070308Z 11003KT 25/19 A3003 RMK A01 T02470192  RH  072%=      5-min Rain = 0
KTAS 070309Z 10003KT 25/19 A3003 RMK A01 T02470192  RH  071%=      5-min Rain = 0
KTAS 070310Z 10003KT 25/19 A3003 RMK A01 T02470191  RH  071%=      5-min Rain = 0
KTAS 070311Z 10004KT 25/19 A3003 RMK A01 T02470191  RH  071%=      5-min Rain = 0
KTAS 070312Z 10004KT 25/19 A3003 RMK A01 T02470191  RH  071%=      5-min Rain = 0
KTAS 070313Z 09004KT 25/19 A3003 RMK A01 T02470192  RH  071%=      5-min Rain = 0
KTAS 070314Z 09003KT 25/19 A3003 RMK A01 T02470192  RH  072%=      5-min Rain = 0
KTAS 070315Z 09004KT 25/19 A3003 RMK A01 T02460193  RH  072%=      5-min Rain = 0
KTAS 070316Z 09004KT 25/19 A3003 RMK A01 T02450193  RH  073%=      5-min Rain = 0
KTAS 070317Z 09004KT 24/19 A3003 RMK A01 T02440193  RH  073%=      5-min Rain = 0
KTAS 070318Z 09004KT 24/19 A3003 RMK A01 T02430192  RH  073%=      5-min Rain = 0
KTAS 070319Z 09004KT 24/19 A3003 RMK A01 T02430192  RH  073%=      5-min Rain = 0
KTAS 070320Z 09004KT 24/19 A3003 RMK A01 T02420192  RH  074%=      5-min Rain = 0
KTAS 070321Z 09004KT 24/19 A3003 RMK A01 T02420193  RH  074%=      5-min Rain = 0
KTAS 070322Z 09004KT 24/19 A3004 RMK A01 T02410192  RH  074%=      5-min Rain = 0
KTAS 070323Z 09004KT 24/19 A3004 RMK A01 T02400193  RH  075%=      5-min Rain = 0
KTAS 070324Z 08005KT 24/19 A3004 RMK A01 T02400193  RH  075%=      5-min Rain = 0
KTAS 070325Z 08006KT 24/19 A3004 RMK A01 T02390193  RH  076%=      5-min Rain = 0
KTAS 070326Z 07006KT 24/19 A3004 RMK A01 T02380193  RH  076%=      5-min Rain = 0
KTAS 070327Z 08007KT 24/19 A3004 RMK A01 T02370193  RH  076%=      5-min Rain = 0
KTAS 070328Z 08008KT 24/19 A3004 RMK A01 T02370192  RH  076%=      5-min Rain = 0
KTAS 070329Z 08007KT 24/19 A3004 RMK A01 T02380192  RH  075%=      5-min Rain = 0
KTAS 070330Z 07006KT 24/19 A3004 RMK A01 T02380192  RH  075%=      5-min Rain = 0
KTAS 070331Z 07006KT 24/19 A3004 RMK A01 T02380192  RH  075%=      5-min Rain = 0
KTAS 070332Z 07006KT 24/19 A3004 RMK A01 T02370192  RH  076%=      5-min Rain = 0
KTAS 070333Z 07006KT 24/19 A3004 RMK A01 T02360193  RH  076%=      5-min Rain = 0
KTAS 070334Z 07006KT 24/19 A3005 RMK A01 T02350193  RH  077%=      5-min Rain = 0
KTAS 070335Z 07006KT 24/19 A3005 RMK A01 T02350193  RH  078%=      5-min Rain = 0
KTAS 070336Z 07006KT 23/19 A3005 RMK A01 T02340194  RH  078%=      5-min Rain = 0
KTAS 070337Z 07006KT 23/19 A3005 RMK A01 T02340194  RH  078%=      5-min Rain = 0
KTAS 070338Z 08005KT 23/20 A3005 RMK A01 T02340195  RH  078%=      5-min Rain = 0
KTAS 070339Z 09005KT 23/20 A3005 RMK A01 T02340195  RH  079%=      5-min Rain = 0
KTAS 070340Z 08006KT 23/20 A3005 RMK A01 T02340196  RH  079%=      5-min Rain = 0
KTAS 070341Z 07007KT 23/20 A3005 RMK A01 T02340196  RH  079%=      5-min Rain = 0
KTAS 070342Z 07007KT 23/20 A3005 RMK A01 T02340197  RH  079%=      5-min Rain = 0
KTAS 070343Z 07006KT 24/20 A3005 RMK A01 T02350197  RH  079%=      5-min Rain = 0
KTAS 070344Z 07006KT 24/20 A3005 RMK A01 T02350197  RH  079%=      5-min Rain = 0
KTAS 070345Z 08006KT 24/20 A3005 RMK A01 T02350197  RH  079%=      5-min Rain = 0
KTAS 070346Z 08006KT 24/20 A3005 RMK A01 T02350198  RH  080%=      5-min Rain = 0
KTAS 070347Z 08005KT 23/20 A3006 RMK A01 T02340198  RH  080%=      5-min Rain = 0
KTAS 070348Z 08006KT 23/20 A3006 RMK A01 T02340198  RH  080%=      5-min Rain = 0
KTAS 070349Z 09006KT 23/20 A3006 RMK A01 T02340198  RH  080%=      5-min Rain = 0
KTAS 070350Z 08005KT 23/20 A3006 RMK A01 T02340198  RH  081%=      5-min Rain = 0
KTAS 070351Z 08005KT 23/20 A3006 RMK A01 T02330198  RH  081%=      5-min Rain = 0
KTAS 070352Z 08005KT 23/20 A3006 RMK A01 T02330198  RH  081%=      5-min Rain = 0
KTAS 070353Z 07006KT 23/20 A3006 RMK A01 T02320198  RH  081%=      5-min Rain = 0
KTAS 070354Z 08006KT 23/20 A3006 RMK A01 T02320198  RH  081%=      5-min Rain = 0
KTAS 070355Z 08006KT 23/20 A3006 RMK A01 T02320198  RH  081%=      5-min Rain = 0
KTAS 070356Z 08006KT 23/20 A3006 RMK A01 T02320198  RH  081%=      5-min Rain = 0
KTAS 070357Z 08005KT 23/20 A3006 RMK A01 T02320198  RH  081%=      5-min Rain = 0
KTAS 070358Z 08005KT 23/20 A3006 RMK A01 T02320198  RH  081%=      5-min Rain = 0
KTAS 070359Z 08005KT 23/20 A3006 RMK A01 T02320198  RH  081%=      5-min Rain = 0
KTAS 070400Z 08005KT 23/20 A3006 RMK A01 T02320198  RH  081%=      5-min Rain = 0
KTAS 070401Z 08005KT 23/20 A3006 RMK A01 T02320198  RH  081%=      5-min Rain = 0
KTAS 070402Z 08005KT 23/20 A3006 RMK A01 T02320198  RH  081%=      5-min Rain = 0
KTAS 070403Z 08005KT 23/20 A3006 RMK A01 T02320198  RH  081%=      5-min Rain = 0
KTAS 070404Z 08005KT 23/20 A3006 RMK A01 T02310198  RH  082%=      5-min Rain = 0
KTAS 070405Z 08005KT 23/20 A3006 RMK A01 T02310198  RH  082%=      5-min Rain = 0
KTAS 070406Z 08005KT 23/20 A3006 RMK A01 T02310198  RH  082%=      5-min Rain = 0
KTAS 070407Z 08005KT 23/20 A3006 RMK A01 T02300198  RH  082%=      5-min Rain = 0
KTAS 070408Z 08004KT 23/20 A3006 RMK A01 T02300198  RH  082%=      5-min Rain = 0
KTAS 070409Z 08004KT 23/20 A3006 RMK A01 T02290197  RH  082%=      5-min Rain = 0
KTAS 070410Z 08004KT 23/20 A3006 RMK A01 T02280197  RH  083%=      5-min Rain = 0
KTAS 070411Z 08004KT 23/20 A3006 RMK A01 T02280197  RH  083%=      5-min Rain = 0
KTAS 070412Z 07004KT 23/20 A3006 RMK A01 T02280197  RH  083%=      5-min Rain = 0
KTAS 070413Z 08004KT 23/20 A3006 RMK A01 T02270197  RH  083%=      5-min Rain = 0
KTAS 070414Z 07004KT 23/20 A3006 RMK A01 T02270198  RH  083%=      5-min Rain = 0
KTAS 070415Z 07004KT 23/20 A3006 RMK A01 T02270197  RH  083%=      5-min Rain = 0
KTAS 070416Z 07005KT 23/20 A3006 RMK A01 T02260197  RH  084%=      5-min Rain = 0
KTAS 070417Z 07005KT 23/20 A3006 RMK A01 T02260197  RH  084%=      5-min Rain = 0
KTAS 070418Z 07005KT 23/20 A3006 RMK A01 T02260197  RH  084%=      5-min Rain = 0
KTAS 070419Z 07004KT 23/20 A3006 RMK A01 T02260197  RH  084%=      5-min Rain = 0
KTAS 070420Z 07005KT 23/20 A3006 RMK A01 T02260197  RH  084%=      5-min Rain = 0
KTAS 070421Z 07005KT 23/20 A3006 RMK A01 T02260198  RH  084%=      5-min Rain = 0
KTAS 070422Z 07005KT 23/20 A3007 RMK A01 T02270197  RH  084%=      5-min Rain = 0
KTAS 070423Z 07005KT 23/20 A3007 RMK A01 T02270197  RH  084%=      5-min Rain = 0
KTAS 070424Z 07005KT 23/20 A3007 RMK A01 T02260197  RH  084%=      5-min Rain = 0
KTAS 070425Z 07005KT 23/20 A3007 RMK A01 T02270197  RH  084%=      5-min Rain = 0
KTAS 070426Z 07005KT 23/20 A3007 RMK A01 T02260197  RH  083%=      5-min Rain = 0
KTAS 070427Z 08004KT 23/20 A3007 RMK A01 T02260196  RH  084%=      5-min Rain = 0
KTAS 070428Z 08004KT 23/20 A3007 RMK A01 T02250196  RH  084%=      5-min Rain = 0
KTAS 070429Z 10003KT 22/20 A3007 RMK A01 T02240197  RH  085%=      5-min Rain = 0
KTAS 070430Z 08003KT 22/20 A3007 RMK A01 T02240197  RH  085%=      5-min Rain = 0
KTAS 070431Z 08005KT 22/20 A3007 RMK A01 T02230197  RH  085%=      5-min Rain = 0
KTAS 070432Z 08005KT 22/20 A3007 RMK A01 T02230198  RH  085%=      5-min Rain = 0
KTAS 070433Z 08005KT 22/20 A3007 RMK A01 T02240198  RH  085%=      5-min Rain = 0
KTAS 070434Z 09004KT 22/20 A3007 RMK A01 T02240198  RH  085%=      5-min Rain = 0
KTAS 070435Z 08004KT 22/20 A3007 RMK A01 T02240198  RH  085%=      5-min Rain = 0
KTAS 070436Z 08004KT 22/20 A3007 RMK A01 T02240198  RH  085%=      5-min Rain = 0
KTAS 070437Z 08006KT 22/20 A3007 RMK A01 T02240198  RH  085%=      5-min Rain = 0
KTAS 070438Z 08006KT 22/20 A3007 RMK A01 T02240198  RH  085%=      5-min Rain = 0
KTAS 070439Z 08005KT 23/20 A3007 RMK A01 T02250199  RH  085%=      5-min Rain = 0
KTAS 070440Z 09005KT 23/20 A3007 RMK A01 T02250199  RH  085%=      5-min Rain = 0
KTAS 070441Z 09005KT 23/20 A3007 RMK A01 T02260199  RH  085%=      5-min Rain = 0
KTAS 070442Z 08005KT 23/20 A3007 RMK A01 T02260199  RH  085%=      5-min Rain = 0
KTAS 070443Z 08005KT 23/20 A3007 RMK A01 T02260199  RH  085%=      5-min Rain = 0
KTAS 070444Z 08005KT 23/20 A3007 RMK A01 T02270199  RH  084%=      5-min Rain = 0
KTAS 070445Z 08005KT 23/20 A3007 RMK A01 T02270199  RH  084%=      5-min Rain = 0
KTAS 070446Z 08005KT 23/20 A3007 RMK A01 T02270199  RH  084%=      5-min Rain = 0
KTAS 070447Z 08005KT 23/20 A3007 RMK A01 T02270199  RH  084%=      5-min Rain = 0
KTAS 070448Z 09005KT 23/20 A3007 RMK A01 T02280199  RH  084%=      5-min Rain = 0
KTAS 070449Z 09005KT 23/20 A3007 RMK A01 T02280199  RH  084%=      5-min Rain = 0
KTAS 070450Z 10005KT 23/20 A3007 RMK A01 T02280199  RH  084%=      5-min Rain = 0
KTAS 070451Z 09005KT 23/20 A3007 RMK A01 T02280199  RH  084%=      5-min Rain = 0
KTAS 070452Z 09006KT 23/20 A3007 RMK A01 T02280199  RH  083%=      5-min Rain = 0
KTAS 070453Z 08006KT 23/20 A3007 RMK A01 T02280199  RH  083%=      5-min Rain = 0
KTAS 070454Z 08007KT 23/20 A3007 RMK A01 T02280199  RH  083%=      5-min Rain = 0
KTAS 070455Z 08007KT 23/20 A3007 RMK A01 T02280199  RH  083%=      5-min Rain = 0
KTAS 070456Z 09007KT 23/20 A3007 RMK A01 T02280199  RH  083%=      5-min Rain = 0
KTAS 070457Z 09006KT 23/20 A3007 RMK A01 T02280199  RH  083%=      5-min Rain = 0
KTAS 070458Z 09005KT 23/20 A3007 RMK A01 T02290199  RH  083%=      5-min Rain = 0
KTAS 070459Z 09006KT 23/20 A3007 RMK A01 T02290199  RH  083%=      5-min Rain = 0

Page generated in 0.0777 seconds.